<?xml version="1.0" encoding="UTF-8" standalone="no" ?>
<gpx xmlns="http://www.topografix.com/GPX/1/1" xmlns:xsi="http://www.w3.org/2001/XMLSchema-instance" xsi:schemaLocation="http://www.topografix.com/GPX/1/1 http://www.topografix.com/GPX/1/1/gpx.xsd" version="1.1" creator="VisuGPX - https://www.visugpx.com">
  <metadata>
    <name>Les balades du confinement</name>
  </metadata>
  <trk>
    <name><![CDATA[5 avril]]></name>
    <trkseg>
      <trkpt lat="43.55009" lon="1.47686">
        <ele>215.346</ele>
        <time>2020-04-05T14:51:15Z</time>
      </trkpt>
      <trkpt lat="43.55003" lon="1.47688">
        <ele>213.452</ele>
        <time>2020-04-05T14:51:21Z</time>
      </trkpt>
      <trkpt lat="43.54999" lon="1.47691">
        <ele>213.838</ele>
        <time>2020-04-05T14:51:26Z</time>
      </trkpt>
      <trkpt lat="43.54995" lon="1.47694">
        <ele>213.415</ele>
        <time>2020-04-05T14:51:32Z</time>
      </trkpt>
      <trkpt lat="43.54991" lon="1.47697">
        <ele>213.21</ele>
        <time>2020-04-05T14:51:38Z</time>
      </trkpt>
      <trkpt lat="43.54986" lon="1.47701">
        <ele>213.141</ele>
        <time>2020-04-05T14:51:44Z</time>
      </trkpt>
      <trkpt lat="43.54978" lon="1.47708">
        <ele>213.042</ele>
        <time>2020-04-05T14:51:50Z</time>
      </trkpt>
      <trkpt lat="43.54973" lon="1.47712">
        <ele>212.949</ele>
        <time>2020-04-05T14:51:56Z</time>
      </trkpt>
      <trkpt lat="43.54972" lon="1.47717">
        <ele>212.87</ele>
        <time>2020-04-05T14:52:01Z</time>
      </trkpt>
      <trkpt lat="43.54966" lon="1.47722">
        <ele>212.774</ele>
        <time>2020-04-05T14:52:07Z</time>
      </trkpt>
      <trkpt lat="43.54961" lon="1.47725">
        <ele>212.706</ele>
        <time>2020-04-05T14:52:12Z</time>
      </trkpt>
      <trkpt lat="43.54956" lon="1.47728">
        <ele>212.64</ele>
        <time>2020-04-05T14:52:18Z</time>
      </trkpt>
      <trkpt lat="43.5495" lon="1.47732">
        <ele>212.598</ele>
        <time>2020-04-05T14:52:24Z</time>
      </trkpt>
      <trkpt lat="43.54944" lon="1.47733">
        <ele>212.563</ele>
        <time>2020-04-05T14:52:30Z</time>
      </trkpt>
      <trkpt lat="43.54939" lon="1.47736">
        <ele>212.535</ele>
        <time>2020-04-05T14:52:35Z</time>
      </trkpt>
      <trkpt lat="43.54933" lon="1.47739">
        <ele>212.489</ele>
        <time>2020-04-05T14:52:41Z</time>
      </trkpt>
      <trkpt lat="43.54928" lon="1.47743">
        <ele>212.447</ele>
        <time>2020-04-05T14:52:47Z</time>
      </trkpt>
      <trkpt lat="43.54924" lon="1.47747">
        <ele>212.404</ele>
        <time>2020-04-05T14:52:52Z</time>
      </trkpt>
      <trkpt lat="43.54921" lon="1.47749">
        <ele>212.369</ele>
        <time>2020-04-05T14:52:57Z</time>
      </trkpt>
      <trkpt lat="43.54915" lon="1.47753">
        <ele>212.327</ele>
        <time>2020-04-05T14:53:03Z</time>
      </trkpt>
      <trkpt lat="43.54904" lon="1.47759">
        <ele>212.274</ele>
        <time>2020-04-05T14:53:08Z</time>
      </trkpt>
      <trkpt lat="43.54896" lon="1.47762">
        <ele>212.216</ele>
        <time>2020-04-05T14:53:14Z</time>
      </trkpt>
      <trkpt lat="43.54892" lon="1.47761">
        <ele>212.181</ele>
        <time>2020-04-05T14:53:19Z</time>
      </trkpt>
      <trkpt lat="43.54885" lon="1.47766">
        <ele>212.175</ele>
        <time>2020-04-05T14:53:25Z</time>
      </trkpt>
      <trkpt lat="43.54877" lon="1.4777">
        <ele>212.179</ele>
        <time>2020-04-05T14:53:31Z</time>
      </trkpt>
      <trkpt lat="43.54869" lon="1.47775">
        <ele>212.192</ele>
        <time>2020-04-05T14:53:37Z</time>
      </trkpt>
      <trkpt lat="43.54863" lon="1.47778">
        <ele>212.203</ele>
        <time>2020-04-05T14:53:43Z</time>
      </trkpt>
      <trkpt lat="43.54859" lon="1.47776">
        <ele>212.217</ele>
        <time>2020-04-05T14:53:48Z</time>
      </trkpt>
      <trkpt lat="43.54854" lon="1.47775">
        <ele>212.215</ele>
        <time>2020-04-05T14:53:54Z</time>
      </trkpt>
      <trkpt lat="43.54851" lon="1.47777">
        <ele>212.19</ele>
        <time>2020-04-05T14:54:00Z</time>
      </trkpt>
      <trkpt lat="43.54846" lon="1.4778">
        <ele>212.149</ele>
        <time>2020-04-05T14:54:05Z</time>
      </trkpt>
      <trkpt lat="43.5484" lon="1.47782">
        <ele>212.096</ele>
        <time>2020-04-05T14:54:11Z</time>
      </trkpt>
      <trkpt lat="43.54834" lon="1.47784">
        <ele>212.051</ele>
        <time>2020-04-05T14:54:16Z</time>
      </trkpt>
      <trkpt lat="43.54826" lon="1.47787">
        <ele>211.995</ele>
        <time>2020-04-05T14:54:22Z</time>
      </trkpt>
      <trkpt lat="43.54819" lon="1.4779">
        <ele>211.949</ele>
        <time>2020-04-05T14:54:28Z</time>
      </trkpt>
      <trkpt lat="43.54814" lon="1.47791">
        <ele>211.921</ele>
        <time>2020-04-05T14:54:33Z</time>
      </trkpt>
      <trkpt lat="43.54809" lon="1.47786">
        <ele>211.9</ele>
        <time>2020-04-05T14:54:38Z</time>
      </trkpt>
      <trkpt lat="43.54798" lon="1.47789">
        <ele>211.877</ele>
        <time>2020-04-05T14:54:44Z</time>
      </trkpt>
      <trkpt lat="43.54793" lon="1.47782">
        <ele>211.846</ele>
        <time>2020-04-05T14:54:50Z</time>
      </trkpt>
      <trkpt lat="43.54787" lon="1.4777">
        <ele>211.809</ele>
        <time>2020-04-05T14:54:56Z</time>
      </trkpt>
      <trkpt lat="43.54783" lon="1.47764">
        <ele>211.787</ele>
        <time>2020-04-05T14:55:01Z</time>
      </trkpt>
      <trkpt lat="43.54779" lon="1.47756">
        <ele>211.769</ele>
        <time>2020-04-05T14:55:07Z</time>
      </trkpt>
      <trkpt lat="43.54775" lon="1.47751">
        <ele>211.755</ele>
        <time>2020-04-05T14:55:12Z</time>
      </trkpt>
      <trkpt lat="43.54772" lon="1.47744">
        <ele>211.741</ele>
        <time>2020-04-05T14:55:18Z</time>
      </trkpt>
      <trkpt lat="43.54768" lon="1.47739">
        <ele>211.737</ele>
        <time>2020-04-05T14:55:23Z</time>
      </trkpt>
      <trkpt lat="43.54765" lon="1.47731">
        <ele>211.747</ele>
        <time>2020-04-05T14:55:28Z</time>
      </trkpt>
      <trkpt lat="43.54763" lon="1.47728">
        <ele>211.762</ele>
        <time>2020-04-05T14:55:34Z</time>
      </trkpt>
      <trkpt lat="43.54764" lon="1.47728">
        <ele>211.764</ele>
        <time>2020-04-05T14:55:39Z</time>
      </trkpt>
      <trkpt lat="43.54762" lon="1.47725">
        <ele>211.777</ele>
        <time>2020-04-05T14:55:44Z</time>
      </trkpt>
      <trkpt lat="43.54758" lon="1.47719">
        <ele>211.792</ele>
        <time>2020-04-05T14:55:49Z</time>
      </trkpt>
      <trkpt lat="43.54755" lon="1.47714">
        <ele>211.799</ele>
        <time>2020-04-05T14:55:55Z</time>
      </trkpt>
      <trkpt lat="43.54752" lon="1.47705">
        <ele>211.796</ele>
        <time>2020-04-05T14:56:00Z</time>
      </trkpt>
      <trkpt lat="43.5475" lon="1.477">
        <ele>211.794</ele>
        <time>2020-04-05T14:56:05Z</time>
      </trkpt>
      <trkpt lat="43.54745" lon="1.47692">
        <ele>211.782</ele>
        <time>2020-04-05T14:56:11Z</time>
      </trkpt>
      <trkpt lat="43.54742" lon="1.47688">
        <ele>211.767</ele>
        <time>2020-04-05T14:56:16Z</time>
      </trkpt>
      <trkpt lat="43.54738" lon="1.47682">
        <ele>211.742</ele>
        <time>2020-04-05T14:56:22Z</time>
      </trkpt>
      <trkpt lat="43.54735" lon="1.47674">
        <ele>211.717</ele>
        <time>2020-04-05T14:56:28Z</time>
      </trkpt>
      <trkpt lat="43.5473" lon="1.47673">
        <ele>211.703</ele>
        <time>2020-04-05T14:56:33Z</time>
      </trkpt>
      <trkpt lat="43.54728" lon="1.47673">
        <ele>211.701</ele>
        <time>2020-04-05T14:56:38Z</time>
      </trkpt>
      <trkpt lat="43.54724" lon="1.47674">
        <ele>211.707</ele>
        <time>2020-04-05T14:56:44Z</time>
      </trkpt>
      <trkpt lat="43.54718" lon="1.47676">
        <ele>211.719</ele>
        <time>2020-04-05T14:56:50Z</time>
      </trkpt>
      <trkpt lat="43.54717" lon="1.47676">
        <ele>211.721</ele>
        <time>2020-04-05T14:56:55Z</time>
      </trkpt>
      <trkpt lat="43.54717" lon="1.47677">
        <ele>211.734</ele>
        <time>2020-04-05T14:57:00Z</time>
      </trkpt>
      <trkpt lat="43.54717" lon="1.47677">
        <ele>211.741</ele>
        <time>2020-04-05T14:57:06Z</time>
      </trkpt>
      <trkpt lat="43.54716" lon="1.47677">
        <ele>211.746</ele>
        <time>2020-04-05T14:57:12Z</time>
      </trkpt>
      <trkpt lat="43.54714" lon="1.47678">
        <ele>211.752</ele>
        <time>2020-04-05T14:57:18Z</time>
      </trkpt>
      <trkpt lat="43.5471" lon="1.4768">
        <ele>211.762</ele>
        <time>2020-04-05T14:57:24Z</time>
      </trkpt>
      <trkpt lat="43.54702" lon="1.47683">
        <ele>211.765</ele>
        <time>2020-04-05T14:57:29Z</time>
      </trkpt>
      <trkpt lat="43.54693" lon="1.47688">
        <ele>211.766</ele>
        <time>2020-04-05T14:57:35Z</time>
      </trkpt>
      <trkpt lat="43.54692" lon="1.47688">
        <ele>211.771</ele>
        <time>2020-04-05T14:57:40Z</time>
      </trkpt>
      <trkpt lat="43.54688" lon="1.47686">
        <ele>211.777</ele>
        <time>2020-04-05T14:57:45Z</time>
      </trkpt>
      <trkpt lat="43.54686" lon="1.47688">
        <ele>211.78</ele>
        <time>2020-04-05T14:57:51Z</time>
      </trkpt>
      <trkpt lat="43.54686" lon="1.47689">
        <ele>211.782</ele>
        <time>2020-04-05T14:57:56Z</time>
      </trkpt>
      <trkpt lat="43.54684" lon="1.4769">
        <ele>211.792</ele>
        <time>2020-04-05T14:58:02Z</time>
      </trkpt>
      <trkpt lat="43.54683" lon="1.47691">
        <ele>211.809</ele>
        <time>2020-04-05T14:58:08Z</time>
      </trkpt>
      <trkpt lat="43.54679" lon="1.47694">
        <ele>211.83</ele>
        <time>2020-04-05T14:58:13Z</time>
      </trkpt>
      <trkpt lat="43.54675" lon="1.47695">
        <ele>211.85</ele>
        <time>2020-04-05T14:58:18Z</time>
      </trkpt>
      <trkpt lat="43.54673" lon="1.477">
        <ele>211.877</ele>
        <time>2020-04-05T14:58:24Z</time>
      </trkpt>
      <trkpt lat="43.5467" lon="1.47707">
        <ele>211.909</ele>
        <time>2020-04-05T14:58:29Z</time>
      </trkpt>
      <trkpt lat="43.54668" lon="1.47714">
        <ele>211.946</ele>
        <time>2020-04-05T14:58:35Z</time>
      </trkpt>
      <trkpt lat="43.54662" lon="1.4772">
        <ele>211.997</ele>
        <time>2020-04-05T14:58:41Z</time>
      </trkpt>
      <trkpt lat="43.54656" lon="1.47726">
        <ele>212.026</ele>
        <time>2020-04-05T14:58:47Z</time>
      </trkpt>
      <trkpt lat="43.54651" lon="1.47734">
        <ele>212.05</ele>
        <time>2020-04-05T14:58:53Z</time>
      </trkpt>
      <trkpt lat="43.54645" lon="1.4774">
        <ele>212.077</ele>
        <time>2020-04-05T14:58:58Z</time>
      </trkpt>
      <trkpt lat="43.5464" lon="1.47746">
        <ele>212.119</ele>
        <time>2020-04-05T14:59:04Z</time>
      </trkpt>
      <trkpt lat="43.54637" lon="1.47753">
        <ele>212.157</ele>
        <time>2020-04-05T14:59:09Z</time>
      </trkpt>
      <trkpt lat="43.54634" lon="1.47763">
        <ele>212.2</ele>
        <time>2020-04-05T14:59:15Z</time>
      </trkpt>
      <trkpt lat="43.5463" lon="1.47769">
        <ele>212.237</ele>
        <time>2020-04-05T14:59:21Z</time>
      </trkpt>
      <trkpt lat="43.54625" lon="1.47773">
        <ele>212.263</ele>
        <time>2020-04-05T14:59:26Z</time>
      </trkpt>
      <trkpt lat="43.54619" lon="1.47779">
        <ele>212.296</ele>
        <time>2020-04-05T14:59:31Z</time>
      </trkpt>
      <trkpt lat="43.54613" lon="1.47788">
        <ele>212.343</ele>
        <time>2020-04-05T14:59:37Z</time>
      </trkpt>
      <trkpt lat="43.54609" lon="1.47793">
        <ele>212.391</ele>
        <time>2020-04-05T14:59:42Z</time>
      </trkpt>
      <trkpt lat="43.54603" lon="1.47802">
        <ele>212.453</ele>
        <time>2020-04-05T14:59:48Z</time>
      </trkpt>
      <trkpt lat="43.546" lon="1.47804">
        <ele>212.509</ele>
        <time>2020-04-05T14:59:53Z</time>
      </trkpt>
      <trkpt lat="43.54596" lon="1.47812">
        <ele>212.567</ele>
        <time>2020-04-05T14:59:59Z</time>
      </trkpt>
      <trkpt lat="43.5459" lon="1.47816">
        <ele>212.613</ele>
        <time>2020-04-05T15:00:04Z</time>
      </trkpt>
      <trkpt lat="43.54583" lon="1.47818">
        <ele>212.657</ele>
        <time>2020-04-05T15:00:09Z</time>
      </trkpt>
      <trkpt lat="43.54576" lon="1.47815">
        <ele>212.702</ele>
        <time>2020-04-05T15:00:15Z</time>
      </trkpt>
      <trkpt lat="43.54572" lon="1.47811">
        <ele>212.725</ele>
        <time>2020-04-05T15:00:20Z</time>
      </trkpt>
      <trkpt lat="43.54569" lon="1.47804">
        <ele>212.745</ele>
        <time>2020-04-05T15:00:26Z</time>
      </trkpt>
      <trkpt lat="43.54567" lon="1.478">
        <ele>212.756</ele>
        <time>2020-04-05T15:00:31Z</time>
      </trkpt>
      <trkpt lat="43.54564" lon="1.47792">
        <ele>212.761</ele>
        <time>2020-04-05T15:00:36Z</time>
      </trkpt>
      <trkpt lat="43.54559" lon="1.47788">
        <ele>212.765</ele>
        <time>2020-04-05T15:00:41Z</time>
      </trkpt>
      <trkpt lat="43.54552" lon="1.47785">
        <ele>212.769</ele>
        <time>2020-04-05T15:00:47Z</time>
      </trkpt>
      <trkpt lat="43.54547" lon="1.47784">
        <ele>212.771</ele>
        <time>2020-04-05T15:00:52Z</time>
      </trkpt>
      <trkpt lat="43.54542" lon="1.4778">
        <ele>212.777</ele>
        <time>2020-04-05T15:00:58Z</time>
      </trkpt>
      <trkpt lat="43.54536" lon="1.47773">
        <ele>212.788</ele>
        <time>2020-04-05T15:01:03Z</time>
      </trkpt>
      <trkpt lat="43.54533" lon="1.47765">
        <ele>212.808</ele>
        <time>2020-04-05T15:01:08Z</time>
      </trkpt>
      <trkpt lat="43.5453" lon="1.47758">
        <ele>212.836</ele>
        <time>2020-04-05T15:01:14Z</time>
      </trkpt>
      <trkpt lat="43.54528" lon="1.47753">
        <ele>212.862</ele>
        <time>2020-04-05T15:01:19Z</time>
      </trkpt>
      <trkpt lat="43.54524" lon="1.47743">
        <ele>212.894</ele>
        <time>2020-04-05T15:01:25Z</time>
      </trkpt>
      <trkpt lat="43.54521" lon="1.47736">
        <ele>212.926</ele>
        <time>2020-04-05T15:01:30Z</time>
      </trkpt>
      <trkpt lat="43.54518" lon="1.47733">
        <ele>212.967</ele>
        <time>2020-04-05T15:01:35Z</time>
      </trkpt>
      <trkpt lat="43.54513" lon="1.47736">
        <ele>213.018</ele>
        <time>2020-04-05T15:01:41Z</time>
      </trkpt>
      <trkpt lat="43.54508" lon="1.47742">
        <ele>213.061</ele>
        <time>2020-04-05T15:01:47Z</time>
      </trkpt>
      <trkpt lat="43.54503" lon="1.47747">
        <ele>213.09</ele>
        <time>2020-04-05T15:01:52Z</time>
      </trkpt>
      <trkpt lat="43.54493" lon="1.4775">
        <ele>213.122</ele>
        <time>2020-04-05T15:01:58Z</time>
      </trkpt>
      <trkpt lat="43.54489" lon="1.47756">
        <ele>213.147</ele>
        <time>2020-04-05T15:02:03Z</time>
      </trkpt>
      <trkpt lat="43.54483" lon="1.47756">
        <ele>213.191</ele>
        <time>2020-04-05T15:02:09Z</time>
      </trkpt>
      <trkpt lat="43.54479" lon="1.47763">
        <ele>213.265</ele>
        <time>2020-04-05T15:02:15Z</time>
      </trkpt>
      <trkpt lat="43.54474" lon="1.47768">
        <ele>213.37</ele>
        <time>2020-04-05T15:02:21Z</time>
      </trkpt>
      <trkpt lat="43.5447" lon="1.47772">
        <ele>213.468</ele>
        <time>2020-04-05T15:02:27Z</time>
      </trkpt>
      <trkpt lat="43.54463" lon="1.47774">
        <ele>213.583</ele>
        <time>2020-04-05T15:02:33Z</time>
      </trkpt>
      <trkpt lat="43.54455" lon="1.47778">
        <ele>213.689</ele>
        <time>2020-04-05T15:02:39Z</time>
      </trkpt>
      <trkpt lat="43.5445" lon="1.47778">
        <ele>213.788</ele>
        <time>2020-04-05T15:02:45Z</time>
      </trkpt>
      <trkpt lat="43.54445" lon="1.47774">
        <ele>213.864</ele>
        <time>2020-04-05T15:02:50Z</time>
      </trkpt>
      <trkpt lat="43.54442" lon="1.47768">
        <ele>213.921</ele>
        <time>2020-04-05T15:02:55Z</time>
      </trkpt>
      <trkpt lat="43.54441" lon="1.47778">
        <ele>214.002</ele>
        <time>2020-04-05T15:03:01Z</time>
      </trkpt>
      <trkpt lat="43.54445" lon="1.47788">
        <ele>214.074</ele>
        <time>2020-04-05T15:03:07Z</time>
      </trkpt>
      <trkpt lat="43.54447" lon="1.47794">
        <ele>214.13</ele>
        <time>2020-04-05T15:03:12Z</time>
      </trkpt>
      <trkpt lat="43.54449" lon="1.47799">
        <ele>214.182</ele>
        <time>2020-04-05T15:03:18Z</time>
      </trkpt>
      <trkpt lat="43.54449" lon="1.47803">
        <ele>214.24</ele>
        <time>2020-04-05T15:03:24Z</time>
      </trkpt>
      <trkpt lat="43.54452" lon="1.47808">
        <ele>214.288</ele>
        <time>2020-04-05T15:03:29Z</time>
      </trkpt>
      <trkpt lat="43.54455" lon="1.47817">
        <ele>214.345</ele>
        <time>2020-04-05T15:03:35Z</time>
      </trkpt>
      <trkpt lat="43.54455" lon="1.47821">
        <ele>214.388</ele>
        <time>2020-04-05T15:03:40Z</time>
      </trkpt>
      <trkpt lat="43.54457" lon="1.47826">
        <ele>214.412</ele>
        <time>2020-04-05T15:03:45Z</time>
      </trkpt>
      <trkpt lat="43.54458" lon="1.47829">
        <ele>214.431</ele>
        <time>2020-04-05T15:03:51Z</time>
      </trkpt>
      <trkpt lat="43.5446" lon="1.47839">
        <ele>214.445</ele>
        <time>2020-04-05T15:03:57Z</time>
      </trkpt>
      <trkpt lat="43.54457" lon="1.47851">
        <ele>214.457</ele>
        <time>2020-04-05T15:04:02Z</time>
      </trkpt>
      <trkpt lat="43.54456" lon="1.47852">
        <ele>214.483</ele>
        <time>2020-04-05T15:04:08Z</time>
      </trkpt>
      <trkpt lat="43.54452" lon="1.47854">
        <ele>214.503</ele>
        <time>2020-04-05T15:04:13Z</time>
      </trkpt>
      <trkpt lat="43.54443" lon="1.47856">
        <ele>214.526</ele>
        <time>2020-04-05T15:04:19Z</time>
      </trkpt>
      <trkpt lat="43.54439" lon="1.47855">
        <ele>214.536</ele>
        <time>2020-04-05T15:04:24Z</time>
      </trkpt>
      <trkpt lat="43.54433" lon="1.47858">
        <ele>214.539</ele>
        <time>2020-04-05T15:04:29Z</time>
      </trkpt>
      <trkpt lat="43.54425" lon="1.47862">
        <ele>214.537</ele>
        <time>2020-04-05T15:04:35Z</time>
      </trkpt>
      <trkpt lat="43.54417" lon="1.47863">
        <ele>214.534</ele>
        <time>2020-04-05T15:04:40Z</time>
      </trkpt>
      <trkpt lat="43.54411" lon="1.47866">
        <ele>214.532</ele>
        <time>2020-04-05T15:04:46Z</time>
      </trkpt>
      <trkpt lat="43.54407" lon="1.47868">
        <ele>214.528</ele>
        <time>2020-04-05T15:04:52Z</time>
      </trkpt>
      <trkpt lat="43.54398" lon="1.47876">
        <ele>214.531</ele>
        <time>2020-04-05T15:04:58Z</time>
      </trkpt>
      <trkpt lat="43.54387" lon="1.47875">
        <ele>214.538</ele>
        <time>2020-04-05T15:05:04Z</time>
      </trkpt>
      <trkpt lat="43.5438" lon="1.47873">
        <ele>214.545</ele>
        <time>2020-04-05T15:05:09Z</time>
      </trkpt>
      <trkpt lat="43.54377" lon="1.47872">
        <ele>214.559</ele>
        <time>2020-04-05T15:05:14Z</time>
      </trkpt>
      <trkpt lat="43.54375" lon="1.47873">
        <ele>214.577</ele>
        <time>2020-04-05T15:05:19Z</time>
      </trkpt>
      <trkpt lat="43.54367" lon="1.47879">
        <ele>214.607</ele>
        <time>2020-04-05T15:05:25Z</time>
      </trkpt>
      <trkpt lat="43.5436" lon="1.4788">
        <ele>214.63</ele>
        <time>2020-04-05T15:05:31Z</time>
      </trkpt>
      <trkpt lat="43.54355" lon="1.47882">
        <ele>214.653</ele>
        <time>2020-04-05T15:05:37Z</time>
      </trkpt>
      <trkpt lat="43.54349" lon="1.47881">
        <ele>214.676</ele>
        <time>2020-04-05T15:05:42Z</time>
      </trkpt>
      <trkpt lat="43.54339" lon="1.47883">
        <ele>214.701</ele>
        <time>2020-04-05T15:05:48Z</time>
      </trkpt>
      <trkpt lat="43.54332" lon="1.4789">
        <ele>214.719</ele>
        <time>2020-04-05T15:05:54Z</time>
      </trkpt>
      <trkpt lat="43.54329" lon="1.47891">
        <ele>214.731</ele>
        <time>2020-04-05T15:05:59Z</time>
      </trkpt>
      <trkpt lat="43.54322" lon="1.47893">
        <ele>214.749</ele>
        <time>2020-04-05T15:06:05Z</time>
      </trkpt>
      <trkpt lat="43.54318" lon="1.47895">
        <ele>214.768</ele>
        <time>2020-04-05T15:06:11Z</time>
      </trkpt>
      <trkpt lat="43.54308" lon="1.47898">
        <ele>214.785</ele>
        <time>2020-04-05T15:06:17Z</time>
      </trkpt>
      <trkpt lat="43.54303" lon="1.47898">
        <ele>214.803</ele>
        <time>2020-04-05T15:06:23Z</time>
      </trkpt>
      <trkpt lat="43.54299" lon="1.47898">
        <ele>214.828</ele>
        <time>2020-04-05T15:06:28Z</time>
      </trkpt>
      <trkpt lat="43.54292" lon="1.47899">
        <ele>214.856</ele>
        <time>2020-04-05T15:06:33Z</time>
      </trkpt>
      <trkpt lat="43.54284" lon="1.479">
        <ele>214.889</ele>
        <time>2020-04-05T15:06:39Z</time>
      </trkpt>
      <trkpt lat="43.54276" lon="1.47904">
        <ele>214.932</ele>
        <time>2020-04-05T15:06:45Z</time>
      </trkpt>
      <trkpt lat="43.54271" lon="1.47907">
        <ele>214.972</ele>
        <time>2020-04-05T15:06:51Z</time>
      </trkpt>
      <trkpt lat="43.54264" lon="1.4791">
        <ele>215.013</ele>
        <time>2020-04-05T15:06:57Z</time>
      </trkpt>
      <trkpt lat="43.54261" lon="1.47912">
        <ele>215.046</ele>
        <time>2020-04-05T15:07:02Z</time>
      </trkpt>
      <trkpt lat="43.54261" lon="1.47913">
        <ele>215.055</ele>
        <time>2020-04-05T15:07:07Z</time>
      </trkpt>
      <trkpt lat="43.54261" lon="1.47914">
        <ele>215.068</ele>
        <time>2020-04-05T15:07:12Z</time>
      </trkpt>
      <trkpt lat="43.54257" lon="1.47915">
        <ele>215.121</ele>
        <time>2020-04-05T15:07:18Z</time>
      </trkpt>
      <trkpt lat="43.54252" lon="1.47917">
        <ele>215.172</ele>
        <time>2020-04-05T15:07:24Z</time>
      </trkpt>
      <trkpt lat="43.5425" lon="1.47922">
        <ele>215.216</ele>
        <time>2020-04-05T15:07:29Z</time>
      </trkpt>
      <trkpt lat="43.54246" lon="1.4793">
        <ele>215.256</ele>
        <time>2020-04-05T15:07:34Z</time>
      </trkpt>
      <trkpt lat="43.54241" lon="1.47935">
        <ele>215.281</ele>
        <time>2020-04-05T15:07:39Z</time>
      </trkpt>
      <trkpt lat="43.54234" lon="1.47936">
        <ele>215.323</ele>
        <time>2020-04-05T15:07:45Z</time>
      </trkpt>
      <trkpt lat="43.54227" lon="1.47938">
        <ele>215.366</ele>
        <time>2020-04-05T15:07:51Z</time>
      </trkpt>
      <trkpt lat="43.54221" lon="1.47939">
        <ele>215.403</ele>
        <time>2020-04-05T15:07:57Z</time>
      </trkpt>
      <trkpt lat="43.5422" lon="1.47939">
        <ele>215.428</ele>
        <time>2020-04-05T15:08:02Z</time>
      </trkpt>
      <trkpt lat="43.54214" lon="1.47942">
        <ele>215.466</ele>
        <time>2020-04-05T15:08:08Z</time>
      </trkpt>
      <trkpt lat="43.54207" lon="1.4794">
        <ele>215.506</ele>
        <time>2020-04-05T15:08:14Z</time>
      </trkpt>
      <trkpt lat="43.54201" lon="1.47941">
        <ele>215.536</ele>
        <time>2020-04-05T15:08:20Z</time>
      </trkpt>
      <trkpt lat="43.54196" lon="1.47939">
        <ele>215.559</ele>
        <time>2020-04-05T15:08:26Z</time>
      </trkpt>
      <trkpt lat="43.5419" lon="1.4794">
        <ele>215.575</ele>
        <time>2020-04-05T15:08:31Z</time>
      </trkpt>
      <trkpt lat="43.54184" lon="1.47941">
        <ele>215.583</ele>
        <time>2020-04-05T15:08:36Z</time>
      </trkpt>
      <trkpt lat="43.54181" lon="1.47946">
        <ele>215.587</ele>
        <time>2020-04-05T15:08:41Z</time>
      </trkpt>
      <trkpt lat="43.54175" lon="1.47953">
        <ele>215.592</ele>
        <time>2020-04-05T15:08:47Z</time>
      </trkpt>
      <trkpt lat="43.54169" lon="1.47961">
        <ele>215.604</ele>
        <time>2020-04-05T15:08:53Z</time>
      </trkpt>
      <trkpt lat="43.54161" lon="1.4796">
        <ele>215.613</ele>
        <time>2020-04-05T15:08:58Z</time>
      </trkpt>
      <trkpt lat="43.54158" lon="1.47961">
        <ele>215.626</ele>
        <time>2020-04-05T15:09:03Z</time>
      </trkpt>
      <trkpt lat="43.54151" lon="1.47965">
        <ele>215.648</ele>
        <time>2020-04-05T15:09:09Z</time>
      </trkpt>
      <trkpt lat="43.54146" lon="1.47966">
        <ele>215.676</ele>
        <time>2020-04-05T15:09:14Z</time>
      </trkpt>
      <trkpt lat="43.54143" lon="1.47964">
        <ele>215.699</ele>
        <time>2020-04-05T15:09:20Z</time>
      </trkpt>
      <trkpt lat="43.54142" lon="1.47957">
        <ele>215.725</ele>
        <time>2020-04-05T15:09:26Z</time>
      </trkpt>
      <trkpt lat="43.5414" lon="1.47951">
        <ele>215.769</ele>
        <time>2020-04-05T15:09:32Z</time>
      </trkpt>
      <trkpt lat="43.54143" lon="1.47945">
        <ele>215.804</ele>
        <time>2020-04-05T15:09:37Z</time>
      </trkpt>
      <trkpt lat="43.54144" lon="1.47937">
        <ele>215.832</ele>
        <time>2020-04-05T15:09:42Z</time>
      </trkpt>
      <trkpt lat="43.54145" lon="1.47929">
        <ele>215.861</ele>
        <time>2020-04-05T15:09:47Z</time>
      </trkpt>
      <trkpt lat="43.54151" lon="1.47923">
        <ele>215.908</ele>
        <time>2020-04-05T15:09:53Z</time>
      </trkpt>
      <trkpt lat="43.54155" lon="1.47921">
        <ele>215.954</ele>
        <time>2020-04-05T15:09:59Z</time>
      </trkpt>
      <trkpt lat="43.5416" lon="1.47919">
        <ele>215.979</ele>
        <time>2020-04-05T15:10:05Z</time>
      </trkpt>
      <trkpt lat="43.54159" lon="1.47914">
        <ele>216.008</ele>
        <time>2020-04-05T15:10:11Z</time>
      </trkpt>
      <trkpt lat="43.54159" lon="1.47907">
        <ele>216.035</ele>
        <time>2020-04-05T15:10:16Z</time>
      </trkpt>
      <trkpt lat="43.54158" lon="1.47903">
        <ele>216.056</ele>
        <time>2020-04-05T15:10:22Z</time>
      </trkpt>
      <trkpt lat="43.54152" lon="1.47896">
        <ele>216.08</ele>
        <time>2020-04-05T15:10:28Z</time>
      </trkpt>
      <trkpt lat="43.5415" lon="1.47892">
        <ele>216.101</ele>
        <time>2020-04-05T15:10:34Z</time>
      </trkpt>
      <trkpt lat="43.54146" lon="1.47885">
        <ele>216.117</ele>
        <time>2020-04-05T15:10:40Z</time>
      </trkpt>
      <trkpt lat="43.54143" lon="1.47878">
        <ele>216.126</ele>
        <time>2020-04-05T15:10:46Z</time>
      </trkpt>
      <trkpt lat="43.54143" lon="1.47875">
        <ele>216.127</ele>
        <time>2020-04-05T15:10:52Z</time>
      </trkpt>
      <trkpt lat="43.54143" lon="1.47874">
        <ele>216.128</ele>
        <time>2020-04-05T15:10:57Z</time>
      </trkpt>
      <trkpt lat="43.5414" lon="1.47875">
        <ele>216.136</ele>
        <time>2020-04-05T15:11:03Z</time>
      </trkpt>
      <trkpt lat="43.54135" lon="1.47874">
        <ele>216.154</ele>
        <time>2020-04-05T15:11:09Z</time>
      </trkpt>
      <trkpt lat="43.54128" lon="1.47876">
        <ele>216.177</ele>
        <time>2020-04-05T15:11:15Z</time>
      </trkpt>
      <trkpt lat="43.54122" lon="1.4788">
        <ele>216.197</ele>
        <time>2020-04-05T15:11:20Z</time>
      </trkpt>
      <trkpt lat="43.54114" lon="1.47883">
        <ele>216.222</ele>
        <time>2020-04-05T15:11:26Z</time>
      </trkpt>
      <trkpt lat="43.54108" lon="1.47885">
        <ele>216.24</ele>
        <time>2020-04-05T15:11:31Z</time>
      </trkpt>
      <trkpt lat="43.541" lon="1.47888">
        <ele>216.264</ele>
        <time>2020-04-05T15:11:36Z</time>
      </trkpt>
      <trkpt lat="43.54091" lon="1.4789">
        <ele>216.294</ele>
        <time>2020-04-05T15:11:41Z</time>
      </trkpt>
      <trkpt lat="43.54089" lon="1.47889">
        <ele>216.326</ele>
        <time>2020-04-05T15:11:46Z</time>
      </trkpt>
      <trkpt lat="43.54086" lon="1.47889">
        <ele>216.377</ele>
        <time>2020-04-05T15:11:52Z</time>
      </trkpt>
      <trkpt lat="43.54082" lon="1.47882">
        <ele>216.414</ele>
        <time>2020-04-05T15:11:57Z</time>
      </trkpt>
      <trkpt lat="43.54079" lon="1.47879">
        <ele>216.451</ele>
        <time>2020-04-05T15:12:02Z</time>
      </trkpt>
      <trkpt lat="43.54075" lon="1.47876">
        <ele>216.49</ele>
        <time>2020-04-05T15:12:07Z</time>
      </trkpt>
      <trkpt lat="43.5407" lon="1.47875">
        <ele>216.541</ele>
        <time>2020-04-05T15:12:13Z</time>
      </trkpt>
      <trkpt lat="43.54064" lon="1.47878">
        <ele>216.584</ele>
        <time>2020-04-05T15:12:18Z</time>
      </trkpt>
      <trkpt lat="43.54058" lon="1.4788">
        <ele>216.628</ele>
        <time>2020-04-05T15:12:24Z</time>
      </trkpt>
      <trkpt lat="43.54053" lon="1.47881">
        <ele>216.667</ele>
        <time>2020-04-05T15:12:29Z</time>
      </trkpt>
      <trkpt lat="43.54043" lon="1.47884">
        <ele>216.731</ele>
        <time>2020-04-05T15:12:35Z</time>
      </trkpt>
      <trkpt lat="43.54037" lon="1.47887">
        <ele>216.799</ele>
        <time>2020-04-05T15:12:41Z</time>
      </trkpt>
      <trkpt lat="43.54031" lon="1.47886">
        <ele>216.87</ele>
        <time>2020-04-05T15:12:47Z</time>
      </trkpt>
      <trkpt lat="43.54029" lon="1.47882">
        <ele>216.924</ele>
        <time>2020-04-05T15:12:52Z</time>
      </trkpt>
      <trkpt lat="43.54027" lon="1.47883">
        <ele>216.97</ele>
        <time>2020-04-05T15:12:57Z</time>
      </trkpt>
      <trkpt lat="43.54027" lon="1.47882">
        <ele>217.024</ele>
        <time>2020-04-05T15:13:03Z</time>
      </trkpt>
      <trkpt lat="43.5402" lon="1.47875">
        <ele>217.061</ele>
        <time>2020-04-05T15:13:08Z</time>
      </trkpt>
      <trkpt lat="43.54012" lon="1.47866">
        <ele>217.101</ele>
        <time>2020-04-05T15:13:14Z</time>
      </trkpt>
      <trkpt lat="43.5401" lon="1.47859">
        <ele>217.141</ele>
        <time>2020-04-05T15:13:20Z</time>
      </trkpt>
      <trkpt lat="43.54004" lon="1.47855">
        <ele>217.181</ele>
        <time>2020-04-05T15:13:25Z</time>
      </trkpt>
      <trkpt lat="43.54" lon="1.47847">
        <ele>217.23</ele>
        <time>2020-04-05T15:13:30Z</time>
      </trkpt>
      <trkpt lat="43.53995" lon="1.47843">
        <ele>217.298</ele>
        <time>2020-04-05T15:13:36Z</time>
      </trkpt>
      <trkpt lat="43.53993" lon="1.47841">
        <ele>217.355</ele>
        <time>2020-04-05T15:13:41Z</time>
      </trkpt>
      <trkpt lat="43.53988" lon="1.47832">
        <ele>217.39</ele>
        <time>2020-04-05T15:13:46Z</time>
      </trkpt>
      <trkpt lat="43.53982" lon="1.47829">
        <ele>217.448</ele>
        <time>2020-04-05T15:13:52Z</time>
      </trkpt>
      <trkpt lat="43.53974" lon="1.47821">
        <ele>217.492</ele>
        <time>2020-04-05T15:13:58Z</time>
      </trkpt>
      <trkpt lat="43.53972" lon="1.47817">
        <ele>217.519</ele>
        <time>2020-04-05T15:14:03Z</time>
      </trkpt>
      <trkpt lat="43.53969" lon="1.47815">
        <ele>217.542</ele>
        <time>2020-04-05T15:14:08Z</time>
      </trkpt>
      <trkpt lat="43.53963" lon="1.47811">
        <ele>217.56</ele>
        <time>2020-04-05T15:14:14Z</time>
      </trkpt>
      <trkpt lat="43.53961" lon="1.47808">
        <ele>217.576</ele>
        <time>2020-04-05T15:14:19Z</time>
      </trkpt>
      <trkpt lat="43.53958" lon="1.478">
        <ele>217.579</ele>
        <time>2020-04-05T15:14:25Z</time>
      </trkpt>
      <trkpt lat="43.53952" lon="1.47796">
        <ele>217.581</ele>
        <time>2020-04-05T15:14:30Z</time>
      </trkpt>
      <trkpt lat="43.53945" lon="1.47793">
        <ele>217.58</ele>
        <time>2020-04-05T15:14:36Z</time>
      </trkpt>
      <trkpt lat="43.53937" lon="1.47783">
        <ele>217.575</ele>
        <time>2020-04-05T15:14:41Z</time>
      </trkpt>
      <trkpt lat="43.53936" lon="1.47777">
        <ele>217.562</ele>
        <time>2020-04-05T15:14:47Z</time>
      </trkpt>
      <trkpt lat="43.53931" lon="1.47771">
        <ele>217.549</ele>
        <time>2020-04-05T15:14:53Z</time>
      </trkpt>
      <trkpt lat="43.53923" lon="1.47763">
        <ele>217.531</ele>
        <time>2020-04-05T15:14:59Z</time>
      </trkpt>
      <trkpt lat="43.53917" lon="1.47759">
        <ele>217.511</ele>
        <time>2020-04-05T15:15:05Z</time>
      </trkpt>
      <trkpt lat="43.53916" lon="1.47756">
        <ele>217.499</ele>
        <time>2020-04-05T15:15:11Z</time>
      </trkpt>
      <trkpt lat="43.5391" lon="1.47749">
        <ele>217.489</ele>
        <time>2020-04-05T15:15:16Z</time>
      </trkpt>
      <trkpt lat="43.53907" lon="1.4774">
        <ele>217.48</ele>
        <time>2020-04-05T15:15:22Z</time>
      </trkpt>
      <trkpt lat="43.53906" lon="1.47735">
        <ele>217.472</ele>
        <time>2020-04-05T15:15:27Z</time>
      </trkpt>
      <trkpt lat="43.53904" lon="1.47729">
        <ele>217.466</ele>
        <time>2020-04-05T15:15:33Z</time>
      </trkpt>
      <trkpt lat="43.53901" lon="1.47724">
        <ele>217.463</ele>
        <time>2020-04-05T15:15:38Z</time>
      </trkpt>
      <trkpt lat="43.53897" lon="1.47719">
        <ele>217.459</ele>
        <time>2020-04-05T15:15:44Z</time>
      </trkpt>
      <trkpt lat="43.53895" lon="1.47717">
        <ele>217.457</ele>
        <time>2020-04-05T15:15:49Z</time>
      </trkpt>
      <trkpt lat="43.53892" lon="1.47705">
        <ele>217.46</ele>
        <time>2020-04-05T15:15:55Z</time>
      </trkpt>
      <trkpt lat="43.5389" lon="1.47703">
        <ele>217.465</ele>
        <time>2020-04-05T15:16:00Z</time>
      </trkpt>
      <trkpt lat="43.53887" lon="1.47698">
        <ele>217.471</ele>
        <time>2020-04-05T15:16:05Z</time>
      </trkpt>
      <trkpt lat="43.53884" lon="1.4769">
        <ele>217.483</ele>
        <time>2020-04-05T15:16:11Z</time>
      </trkpt>
      <trkpt lat="43.53883" lon="1.47687">
        <ele>217.492</ele>
        <time>2020-04-05T15:16:17Z</time>
      </trkpt>
      <trkpt lat="43.5388" lon="1.47683">
        <ele>217.508</ele>
        <time>2020-04-05T15:16:22Z</time>
      </trkpt>
      <trkpt lat="43.53876" lon="1.47676">
        <ele>217.53</ele>
        <time>2020-04-05T15:16:28Z</time>
      </trkpt>
      <trkpt lat="43.53875" lon="1.47671">
        <ele>217.546</ele>
        <time>2020-04-05T15:16:33Z</time>
      </trkpt>
      <trkpt lat="43.53872" lon="1.47666">
        <ele>217.559</ele>
        <time>2020-04-05T15:16:38Z</time>
      </trkpt>
      <trkpt lat="43.53869" lon="1.47659">
        <ele>217.569</ele>
        <time>2020-04-05T15:16:44Z</time>
      </trkpt>
      <trkpt lat="43.53868" lon="1.47652">
        <ele>217.583</ele>
        <time>2020-04-05T15:16:49Z</time>
      </trkpt>
      <trkpt lat="43.53865" lon="1.47628">
        <ele>217.613</ele>
        <time>2020-04-05T15:16:55Z</time>
      </trkpt>
      <trkpt lat="43.53863" lon="1.4762">
        <ele>217.638</ele>
        <time>2020-04-05T15:17:01Z</time>
      </trkpt>
      <trkpt lat="43.53858" lon="1.4761">
        <ele>217.667</ele>
        <time>2020-04-05T15:17:06Z</time>
      </trkpt>
      <trkpt lat="43.53852" lon="1.476">
        <ele>217.684</ele>
        <time>2020-04-05T15:17:11Z</time>
      </trkpt>
      <trkpt lat="43.53847" lon="1.47592">
        <ele>217.723</ele>
        <time>2020-04-05T15:17:16Z</time>
      </trkpt>
      <trkpt lat="43.53844" lon="1.47587">
        <ele>217.755</ele>
        <time>2020-04-05T15:17:21Z</time>
      </trkpt>
      <trkpt lat="43.53842" lon="1.47583">
        <ele>217.779</ele>
        <time>2020-04-05T15:17:27Z</time>
      </trkpt>
      <trkpt lat="43.53837" lon="1.47573">
        <ele>217.815</ele>
        <time>2020-04-05T15:17:33Z</time>
      </trkpt>
      <trkpt lat="43.53833" lon="1.47565">
        <ele>217.841</ele>
        <time>2020-04-05T15:17:38Z</time>
      </trkpt>
      <trkpt lat="43.53833" lon="1.4756">
        <ele>217.868</ele>
        <time>2020-04-05T15:17:43Z</time>
      </trkpt>
      <trkpt lat="43.53828" lon="1.47551">
        <ele>217.901</ele>
        <time>2020-04-05T15:17:49Z</time>
      </trkpt>
      <trkpt lat="43.53822" lon="1.47545">
        <ele>217.924</ele>
        <time>2020-04-05T15:17:54Z</time>
      </trkpt>
      <trkpt lat="43.53819" lon="1.47539">
        <ele>217.943</ele>
        <time>2020-04-05T15:17:59Z</time>
      </trkpt>
      <trkpt lat="43.53819" lon="1.4753">
        <ele>217.977</ele>
        <time>2020-04-05T15:18:04Z</time>
      </trkpt>
      <trkpt lat="43.5382" lon="1.47525">
        <ele>218.035</ele>
        <time>2020-04-05T15:18:10Z</time>
      </trkpt>
      <trkpt lat="43.53818" lon="1.47519">
        <ele>218.088</ele>
        <time>2020-04-05T15:18:15Z</time>
      </trkpt>
      <trkpt lat="43.53817" lon="1.47515">
        <ele>218.159</ele>
        <time>2020-04-05T15:18:21Z</time>
      </trkpt>
      <trkpt lat="43.53814" lon="1.4751">
        <ele>218.223</ele>
        <time>2020-04-05T15:18:26Z</time>
      </trkpt>
      <trkpt lat="43.53811" lon="1.47505">
        <ele>218.318</ele>
        <time>2020-04-05T15:18:32Z</time>
      </trkpt>
      <trkpt lat="43.53811" lon="1.47503">
        <ele>218.396</ele>
        <time>2020-04-05T15:18:37Z</time>
      </trkpt>
      <trkpt lat="43.5381" lon="1.47497">
        <ele>218.485</ele>
        <time>2020-04-05T15:18:43Z</time>
      </trkpt>
      <trkpt lat="43.53809" lon="1.47487">
        <ele>218.555</ele>
        <time>2020-04-05T15:18:48Z</time>
      </trkpt>
      <trkpt lat="43.53803" lon="1.47478">
        <ele>218.637</ele>
        <time>2020-04-05T15:18:54Z</time>
      </trkpt>
      <trkpt lat="43.53797" lon="1.47471">
        <ele>218.733</ele>
        <time>2020-04-05T15:18:59Z</time>
      </trkpt>
      <trkpt lat="43.53793" lon="1.4746">
        <ele>218.79</ele>
        <time>2020-04-05T15:19:04Z</time>
      </trkpt>
      <trkpt lat="43.53792" lon="1.47458">
        <ele>218.868</ele>
        <time>2020-04-05T15:19:09Z</time>
      </trkpt>
      <trkpt lat="43.53791" lon="1.4744">
        <ele>218.969</ele>
        <time>2020-04-05T15:19:15Z</time>
      </trkpt>
      <trkpt lat="43.53789" lon="1.47431">
        <ele>219.087</ele>
        <time>2020-04-05T15:19:20Z</time>
      </trkpt>
      <trkpt lat="43.53786" lon="1.47424">
        <ele>219.233</ele>
        <time>2020-04-05T15:19:26Z</time>
      </trkpt>
      <trkpt lat="43.5378" lon="1.47419">
        <ele>219.372</ele>
        <time>2020-04-05T15:19:32Z</time>
      </trkpt>
      <trkpt lat="43.53774" lon="1.47419">
        <ele>219.532</ele>
        <time>2020-04-05T15:19:38Z</time>
      </trkpt>
      <trkpt lat="43.53766" lon="1.47414">
        <ele>219.676</ele>
        <time>2020-04-05T15:19:44Z</time>
      </trkpt>
      <trkpt lat="43.5376" lon="1.47404">
        <ele>219.807</ele>
        <time>2020-04-05T15:19:50Z</time>
      </trkpt>
      <trkpt lat="43.53756" lon="1.47398">
        <ele>219.883</ele>
        <time>2020-04-05T15:19:55Z</time>
      </trkpt>
      <trkpt lat="43.53755" lon="1.47393">
        <ele>220.004</ele>
        <time>2020-04-05T15:20:00Z</time>
      </trkpt>
      <trkpt lat="43.53754" lon="1.47389">
        <ele>220.141</ele>
        <time>2020-04-05T15:20:06Z</time>
      </trkpt>
      <trkpt lat="43.5375" lon="1.47383">
        <ele>220.266</ele>
        <time>2020-04-05T15:20:12Z</time>
      </trkpt>
      <trkpt lat="43.53741" lon="1.4738">
        <ele>220.388</ele>
        <time>2020-04-05T15:20:18Z</time>
      </trkpt>
      <trkpt lat="43.53733" lon="1.47372">
        <ele>220.518</ele>
        <time>2020-04-05T15:20:24Z</time>
      </trkpt>
      <trkpt lat="43.5373" lon="1.47371">
        <ele>220.628</ele>
        <time>2020-04-05T15:20:29Z</time>
      </trkpt>
      <trkpt lat="43.53725" lon="1.47367">
        <ele>220.736</ele>
        <time>2020-04-05T15:20:34Z</time>
      </trkpt>
      <trkpt lat="43.5372" lon="1.47363">
        <ele>220.86</ele>
        <time>2020-04-05T15:20:40Z</time>
      </trkpt>
      <trkpt lat="43.53712" lon="1.47352">
        <ele>220.996</ele>
        <time>2020-04-05T15:20:46Z</time>
      </trkpt>
      <trkpt lat="43.53706" lon="1.47344">
        <ele>221.123</ele>
        <time>2020-04-05T15:20:52Z</time>
      </trkpt>
      <trkpt lat="43.53705" lon="1.47341">
        <ele>221.249</ele>
        <time>2020-04-05T15:20:57Z</time>
      </trkpt>
      <trkpt lat="43.53701" lon="1.47335">
        <ele>221.396</ele>
        <time>2020-04-05T15:21:03Z</time>
      </trkpt>
      <trkpt lat="43.53698" lon="1.4733">
        <ele>221.517</ele>
        <time>2020-04-05T15:21:08Z</time>
      </trkpt>
      <trkpt lat="43.53693" lon="1.47321">
        <ele>221.675</ele>
        <time>2020-04-05T15:21:14Z</time>
      </trkpt>
      <trkpt lat="43.5369" lon="1.47318">
        <ele>221.836</ele>
        <time>2020-04-05T15:21:20Z</time>
      </trkpt>
      <trkpt lat="43.53679" lon="1.47315">
        <ele>222.004</ele>
        <time>2020-04-05T15:21:26Z</time>
      </trkpt>
      <trkpt lat="43.53673" lon="1.47313">
        <ele>222.173</ele>
        <time>2020-04-05T15:21:32Z</time>
      </trkpt>
      <trkpt lat="43.53668" lon="1.47302">
        <ele>222.313</ele>
        <time>2020-04-05T15:21:38Z</time>
      </trkpt>
      <trkpt lat="43.53664" lon="1.47297">
        <ele>222.475</ele>
        <time>2020-04-05T15:21:44Z</time>
      </trkpt>
      <trkpt lat="43.53659" lon="1.47289">
        <ele>222.637</ele>
        <time>2020-04-05T15:21:50Z</time>
      </trkpt>
      <trkpt lat="43.53656" lon="1.47284">
        <ele>222.797</ele>
        <time>2020-04-05T15:21:56Z</time>
      </trkpt>
      <trkpt lat="43.53653" lon="1.4728">
        <ele>222.936</ele>
        <time>2020-04-05T15:22:01Z</time>
      </trkpt>
      <trkpt lat="43.53651" lon="1.47272">
        <ele>223.074</ele>
        <time>2020-04-05T15:22:07Z</time>
      </trkpt>
      <trkpt lat="43.5365" lon="1.47266">
        <ele>223.224</ele>
        <time>2020-04-05T15:22:13Z</time>
      </trkpt>
      <trkpt lat="43.5365" lon="1.47264">
        <ele>223.266</ele>
        <time>2020-04-05T15:22:18Z</time>
      </trkpt>
      <trkpt lat="43.5365" lon="1.47261">
        <ele>223.403</ele>
        <time>2020-04-05T15:22:24Z</time>
      </trkpt>
      <trkpt lat="43.53648" lon="1.47265">
        <ele>223.515</ele>
        <time>2020-04-05T15:22:30Z</time>
      </trkpt>
      <trkpt lat="43.53648" lon="1.47263">
        <ele>223.605</ele>
        <time>2020-04-05T15:22:36Z</time>
      </trkpt>
      <trkpt lat="43.53647" lon="1.47263">
        <ele>223.663</ele>
        <time>2020-04-05T15:22:42Z</time>
      </trkpt>
      <trkpt lat="43.53647" lon="1.47262">
        <ele>223.73</ele>
        <time>2020-04-05T15:22:48Z</time>
      </trkpt>
      <trkpt lat="43.53645" lon="1.47258">
        <ele>223.911</ele>
        <time>2020-04-05T15:22:53Z</time>
      </trkpt>
      <trkpt lat="43.53642" lon="1.47253">
        <ele>224.129</ele>
        <time>2020-04-05T15:22:58Z</time>
      </trkpt>
      <trkpt lat="43.53639" lon="1.47247">
        <ele>224.349</ele>
        <time>2020-04-05T15:23:03Z</time>
      </trkpt>
      <trkpt lat="43.53634" lon="1.47242">
        <ele>224.571</ele>
        <time>2020-04-05T15:23:08Z</time>
      </trkpt>
      <trkpt lat="43.53629" lon="1.47237">
        <ele>224.844</ele>
        <time>2020-04-05T15:23:14Z</time>
      </trkpt>
      <trkpt lat="43.53626" lon="1.47233">
        <ele>225.075</ele>
        <time>2020-04-05T15:23:19Z</time>
      </trkpt>
      <trkpt lat="43.53621" lon="1.47229">
        <ele>225.359</ele>
        <time>2020-04-05T15:23:25Z</time>
      </trkpt>
      <trkpt lat="43.53617" lon="1.47225">
        <ele>225.598</ele>
        <time>2020-04-05T15:23:30Z</time>
      </trkpt>
      <trkpt lat="43.53613" lon="1.47223">
        <ele>225.884</ele>
        <time>2020-04-05T15:23:36Z</time>
      </trkpt>
      <trkpt lat="43.53608" lon="1.47221">
        <ele>226.163</ele>
        <time>2020-04-05T15:23:42Z</time>
      </trkpt>
      <trkpt lat="43.53603" lon="1.47216">
        <ele>226.447</ele>
        <time>2020-04-05T15:23:48Z</time>
      </trkpt>
      <trkpt lat="43.53596" lon="1.47209">
        <ele>226.743</ele>
        <time>2020-04-05T15:23:54Z</time>
      </trkpt>
      <trkpt lat="43.53591" lon="1.47202">
        <ele>227.052</ele>
        <time>2020-04-05T15:24:00Z</time>
      </trkpt>
      <trkpt lat="43.53587" lon="1.47195">
        <ele>227.367</ele>
        <time>2020-04-05T15:24:06Z</time>
      </trkpt>
      <trkpt lat="43.53581" lon="1.47187">
        <ele>227.674</ele>
        <time>2020-04-05T15:24:12Z</time>
      </trkpt>
      <trkpt lat="43.53578" lon="1.47178">
        <ele>227.933</ele>
        <time>2020-04-05T15:24:17Z</time>
      </trkpt>
      <trkpt lat="43.53575" lon="1.47173">
        <ele>228.239</ele>
        <time>2020-04-05T15:24:23Z</time>
      </trkpt>
      <trkpt lat="43.53574" lon="1.4717">
        <ele>228.484</ele>
        <time>2020-04-05T15:24:28Z</time>
      </trkpt>
      <trkpt lat="43.53565" lon="1.47165">
        <ele>228.773</ele>
        <time>2020-04-05T15:24:34Z</time>
      </trkpt>
      <trkpt lat="43.53557" lon="1.47159">
        <ele>229.076</ele>
        <time>2020-04-05T15:24:40Z</time>
      </trkpt>
      <trkpt lat="43.53552" lon="1.4715">
        <ele>229.379</ele>
        <time>2020-04-05T15:24:46Z</time>
      </trkpt>
      <trkpt lat="43.53549" lon="1.47144">
        <ele>229.632</ele>
        <time>2020-04-05T15:24:51Z</time>
      </trkpt>
      <trkpt lat="43.53545" lon="1.47138">
        <ele>229.939</ele>
        <time>2020-04-05T15:24:57Z</time>
      </trkpt>
      <trkpt lat="43.53541" lon="1.47134">
        <ele>230.206</ele>
        <time>2020-04-05T15:25:03Z</time>
      </trkpt>
      <trkpt lat="43.53538" lon="1.4713">
        <ele>230.517</ele>
        <time>2020-04-05T15:25:09Z</time>
      </trkpt>
      <trkpt lat="43.53536" lon="1.47128">
        <ele>230.767</ele>
        <time>2020-04-05T15:25:15Z</time>
      </trkpt>
      <trkpt lat="43.53534" lon="1.47127">
        <ele>230.961</ele>
        <time>2020-04-05T15:25:21Z</time>
      </trkpt>
      <trkpt lat="43.53533" lon="1.47125">
        <ele>231.197</ele>
        <time>2020-04-05T15:25:27Z</time>
      </trkpt>
      <trkpt lat="43.53529" lon="1.47122">
        <ele>231.449</ele>
        <time>2020-04-05T15:25:33Z</time>
      </trkpt>
      <trkpt lat="43.53523" lon="1.47117">
        <ele>231.675</ele>
        <time>2020-04-05T15:25:39Z</time>
      </trkpt>
      <trkpt lat="43.53521" lon="1.4711">
        <ele>231.853</ele>
        <time>2020-04-05T15:25:44Z</time>
      </trkpt>
      <trkpt lat="43.53518" lon="1.47104">
        <ele>232.081</ele>
        <time>2020-04-05T15:25:50Z</time>
      </trkpt>
      <trkpt lat="43.53518" lon="1.47098">
        <ele>232.258</ele>
        <time>2020-04-05T15:25:55Z</time>
      </trkpt>
      <trkpt lat="43.53518" lon="1.47096">
        <ele>232.407</ele>
        <time>2020-04-05T15:26:01Z</time>
      </trkpt>
      <trkpt lat="43.53517" lon="1.47086">
        <ele>232.628</ele>
        <time>2020-04-05T15:26:07Z</time>
      </trkpt>
      <trkpt lat="43.53515" lon="1.47074">
        <ele>233.022</ele>
        <time>2020-04-05T15:26:13Z</time>
      </trkpt>
      <trkpt lat="43.53509" lon="1.47067">
        <ele>233.787</ele>
        <time>2020-04-05T15:26:19Z</time>
      </trkpt>
      <trkpt lat="43.535" lon="1.47066">
        <ele>234.797</ele>
        <time>2020-04-05T15:26:25Z</time>
      </trkpt>
      <trkpt lat="43.53491" lon="1.47064">
        <ele>235.779</ele>
        <time>2020-04-05T15:26:30Z</time>
      </trkpt>
      <trkpt lat="43.53487" lon="1.47063">
        <ele>236.922</ele>
        <time>2020-04-05T15:26:36Z</time>
      </trkpt>
      <trkpt lat="43.53485" lon="1.4706">
        <ele>237.707</ele>
        <time>2020-04-05T15:26:41Z</time>
      </trkpt>
      <trkpt lat="43.53483" lon="1.47052">
        <ele>238.899</ele>
        <time>2020-04-05T15:26:47Z</time>
      </trkpt>
      <trkpt lat="43.53482" lon="1.47044">
        <ele>240.101</ele>
        <time>2020-04-05T15:26:53Z</time>
      </trkpt>
      <trkpt lat="43.53484" lon="1.47041">
        <ele>241.276</ele>
        <time>2020-04-05T15:26:59Z</time>
      </trkpt>
      <trkpt lat="43.53485" lon="1.47035">
        <ele>242.029</ele>
        <time>2020-04-05T15:27:04Z</time>
      </trkpt>
      <trkpt lat="43.53486" lon="1.47031">
        <ele>242.77</ele>
        <time>2020-04-05T15:27:10Z</time>
      </trkpt>
      <trkpt lat="43.53488" lon="1.47024">
        <ele>243.735</ele>
        <time>2020-04-05T15:27:16Z</time>
      </trkpt>
      <trkpt lat="43.53485" lon="1.4702">
        <ele>244.336</ele>
        <time>2020-04-05T15:27:21Z</time>
      </trkpt>
      <trkpt lat="43.53479" lon="1.47011">
        <ele>245.129</ele>
        <time>2020-04-05T15:27:27Z</time>
      </trkpt>
      <trkpt lat="43.53471" lon="1.4701">
        <ele>245.782</ele>
        <time>2020-04-05T15:27:32Z</time>
      </trkpt>
      <trkpt lat="43.53465" lon="1.47011">
        <ele>246.553</ele>
        <time>2020-04-05T15:27:38Z</time>
      </trkpt>
      <trkpt lat="43.53461" lon="1.47011">
        <ele>247.191</ele>
        <time>2020-04-05T15:27:43Z</time>
      </trkpt>
      <trkpt lat="43.53454" lon="1.47007">
        <ele>247.975</ele>
        <time>2020-04-05T15:27:49Z</time>
      </trkpt>
      <trkpt lat="43.53449" lon="1.47006">
        <ele>248.623</ele>
        <time>2020-04-05T15:27:54Z</time>
      </trkpt>
      <trkpt lat="43.53445" lon="1.47005">
        <ele>249.262</ele>
        <time>2020-04-05T15:27:59Z</time>
      </trkpt>
      <trkpt lat="43.53439" lon="1.47004">
        <ele>249.871</ele>
        <time>2020-04-05T15:28:04Z</time>
      </trkpt>
      <trkpt lat="43.53438" lon="1.47">
        <ele>250.537</ele>
        <time>2020-04-05T15:28:10Z</time>
      </trkpt>
      <trkpt lat="43.53436" lon="1.46995">
        <ele>251.038</ele>
        <time>2020-04-05T15:28:15Z</time>
      </trkpt>
      <trkpt lat="43.53434" lon="1.46991">
        <ele>251.515</ele>
        <time>2020-04-05T15:28:20Z</time>
      </trkpt>
      <trkpt lat="43.53431" lon="1.46986">
        <ele>251.975</ele>
        <time>2020-04-05T15:28:25Z</time>
      </trkpt>
      <trkpt lat="43.53428" lon="1.46982">
        <ele>252.42</ele>
        <time>2020-04-05T15:28:30Z</time>
      </trkpt>
      <trkpt lat="43.53422" lon="1.46974">
        <ele>252.987</ele>
        <time>2020-04-05T15:28:36Z</time>
      </trkpt>
      <trkpt lat="43.53419" lon="1.46969">
        <ele>253.491</ele>
        <time>2020-04-05T15:28:41Z</time>
      </trkpt>
      <trkpt lat="43.53417" lon="1.46963">
        <ele>254.132</ele>
        <time>2020-04-05T15:28:47Z</time>
      </trkpt>
      <trkpt lat="43.53415" lon="1.46959">
        <ele>254.654</ele>
        <time>2020-04-05T15:28:52Z</time>
      </trkpt>
      <trkpt lat="43.53414" lon="1.46954">
        <ele>255.263</ele>
        <time>2020-04-05T15:28:58Z</time>
      </trkpt>
      <trkpt lat="43.53415" lon="1.4695">
        <ele>255.759</ele>
        <time>2020-04-05T15:29:04Z</time>
      </trkpt>
      <trkpt lat="43.53417" lon="1.46944">
        <ele>256.236</ele>
        <time>2020-04-05T15:29:09Z</time>
      </trkpt>
      <trkpt lat="43.53421" lon="1.46934">
        <ele>256.806</ele>
        <time>2020-04-05T15:29:15Z</time>
      </trkpt>
      <trkpt lat="43.53423" lon="1.46927">
        <ele>257.277</ele>
        <time>2020-04-05T15:29:21Z</time>
      </trkpt>
      <trkpt lat="43.53425" lon="1.46921">
        <ele>257.733</ele>
        <time>2020-04-05T15:29:26Z</time>
      </trkpt>
      <trkpt lat="43.53431" lon="1.46917">
        <ele>258.173</ele>
        <time>2020-04-05T15:29:32Z</time>
      </trkpt>
      <trkpt lat="43.53434" lon="1.46912">
        <ele>258.631</ele>
        <time>2020-04-05T15:29:38Z</time>
      </trkpt>
      <trkpt lat="43.53437" lon="1.46908">
        <ele>258.97</ele>
        <time>2020-04-05T15:29:43Z</time>
      </trkpt>
      <trkpt lat="43.53443" lon="1.46901">
        <ele>259.344</ele>
        <time>2020-04-05T15:29:49Z</time>
      </trkpt>
      <trkpt lat="43.53446" lon="1.46894">
        <ele>259.649</ele>
        <time>2020-04-05T15:29:54Z</time>
      </trkpt>
      <trkpt lat="43.5345" lon="1.46889">
        <ele>260.011</ele>
        <time>2020-04-05T15:30:00Z</time>
      </trkpt>
      <trkpt lat="43.53453" lon="1.4688">
        <ele>260.37</ele>
        <time>2020-04-05T15:30:06Z</time>
      </trkpt>
      <trkpt lat="43.53456" lon="1.46876">
        <ele>260.674</ele>
        <time>2020-04-05T15:30:11Z</time>
      </trkpt>
      <trkpt lat="43.53459" lon="1.4687">
        <ele>261.034</ele>
        <time>2020-04-05T15:30:17Z</time>
      </trkpt>
      <trkpt lat="43.53466" lon="1.46864">
        <ele>261.411</ele>
        <time>2020-04-05T15:30:23Z</time>
      </trkpt>
      <trkpt lat="43.53471" lon="1.46858">
        <ele>261.751</ele>
        <time>2020-04-05T15:30:28Z</time>
      </trkpt>
      <trkpt lat="43.53473" lon="1.46852">
        <ele>262.126</ele>
        <time>2020-04-05T15:30:33Z</time>
      </trkpt>
      <trkpt lat="43.53476" lon="1.46846">
        <ele>262.588</ele>
        <time>2020-04-05T15:30:39Z</time>
      </trkpt>
      <trkpt lat="43.53479" lon="1.46841">
        <ele>263.044</ele>
        <time>2020-04-05T15:30:45Z</time>
      </trkpt>
      <trkpt lat="43.53482" lon="1.46835">
        <ele>263.48</ele>
        <time>2020-04-05T15:30:51Z</time>
      </trkpt>
      <trkpt lat="43.53484" lon="1.46829">
        <ele>263.812</ele>
        <time>2020-04-05T15:30:56Z</time>
      </trkpt>
      <trkpt lat="43.53487" lon="1.46822">
        <ele>264.115</ele>
        <time>2020-04-05T15:31:01Z</time>
      </trkpt>
      <trkpt lat="43.5349" lon="1.46814">
        <ele>264.419</ele>
        <time>2020-04-05T15:31:07Z</time>
      </trkpt>
      <trkpt lat="43.53491" lon="1.46814">
        <ele>264.564</ele>
        <time>2020-04-05T15:31:13Z</time>
      </trkpt>
      <trkpt lat="43.53493" lon="1.4681">
        <ele>264.858</ele>
        <time>2020-04-05T15:31:18Z</time>
      </trkpt>
      <trkpt lat="43.53494" lon="1.46805">
        <ele>265.148</ele>
        <time>2020-04-05T15:31:23Z</time>
      </trkpt>
      <trkpt lat="43.53494" lon="1.46799">
        <ele>265.5</ele>
        <time>2020-04-05T15:31:29Z</time>
      </trkpt>
      <trkpt lat="43.53498" lon="1.46791">
        <ele>265.821</ele>
        <time>2020-04-05T15:31:35Z</time>
      </trkpt>
      <trkpt lat="43.53501" lon="1.46783">
        <ele>266.073</ele>
        <time>2020-04-05T15:31:40Z</time>
      </trkpt>
      <trkpt lat="43.53503" lon="1.46775">
        <ele>266.318</ele>
        <time>2020-04-05T15:31:45Z</time>
      </trkpt>
      <trkpt lat="43.53508" lon="1.46771">
        <ele>266.601</ele>
        <time>2020-04-05T15:31:51Z</time>
      </trkpt>
      <trkpt lat="43.53511" lon="1.46766">
        <ele>266.886</ele>
        <time>2020-04-05T15:31:57Z</time>
      </trkpt>
      <trkpt lat="43.53513" lon="1.46758">
        <ele>267.187</ele>
        <time>2020-04-05T15:32:03Z</time>
      </trkpt>
      <trkpt lat="43.53515" lon="1.46756">
        <ele>267.445</ele>
        <time>2020-04-05T15:32:08Z</time>
      </trkpt>
      <trkpt lat="43.53515" lon="1.46755">
        <ele>267.472</ele>
        <time>2020-04-05T15:32:13Z</time>
      </trkpt>
      <trkpt lat="43.53515" lon="1.46755">
        <ele>267.604</ele>
        <time>2020-04-05T15:32:18Z</time>
      </trkpt>
      <trkpt lat="43.53519" lon="1.46748">
        <ele>267.948</ele>
        <time>2020-04-05T15:32:24Z</time>
      </trkpt>
      <trkpt lat="43.53522" lon="1.46743">
        <ele>268.227</ele>
        <time>2020-04-05T15:32:29Z</time>
      </trkpt>
      <trkpt lat="43.53525" lon="1.46736">
        <ele>268.496</ele>
        <time>2020-04-05T15:32:34Z</time>
      </trkpt>
      <trkpt lat="43.53528" lon="1.46731">
        <ele>268.794</ele>
        <time>2020-04-05T15:32:40Z</time>
      </trkpt>
      <trkpt lat="43.53534" lon="1.46723">
        <ele>269.08</ele>
        <time>2020-04-05T15:32:46Z</time>
      </trkpt>
      <trkpt lat="43.53539" lon="1.46717">
        <ele>269.336</ele>
        <time>2020-04-05T15:32:51Z</time>
      </trkpt>
      <trkpt lat="43.53542" lon="1.46712">
        <ele>269.601</ele>
        <time>2020-04-05T15:32:56Z</time>
      </trkpt>
      <trkpt lat="43.53543" lon="1.46707">
        <ele>269.908</ele>
        <time>2020-04-05T15:33:02Z</time>
      </trkpt>
      <trkpt lat="43.53544" lon="1.467">
        <ele>270.193</ele>
        <time>2020-04-05T15:33:08Z</time>
      </trkpt>
      <trkpt lat="43.53545" lon="1.46694">
        <ele>270.415</ele>
        <time>2020-04-05T15:33:13Z</time>
      </trkpt>
      <trkpt lat="43.53548" lon="1.46687">
        <ele>270.66</ele>
        <time>2020-04-05T15:33:19Z</time>
      </trkpt>
      <trkpt lat="43.53547" lon="1.46678">
        <ele>270.899</ele>
        <time>2020-04-05T15:33:25Z</time>
      </trkpt>
      <trkpt lat="43.5355" lon="1.46671">
        <ele>271.13</ele>
        <time>2020-04-05T15:33:31Z</time>
      </trkpt>
      <trkpt lat="43.53556" lon="1.46662">
        <ele>271.34</ele>
        <time>2020-04-05T15:33:37Z</time>
      </trkpt>
      <trkpt lat="43.53559" lon="1.46657">
        <ele>271.495</ele>
        <time>2020-04-05T15:33:42Z</time>
      </trkpt>
      <trkpt lat="43.53563" lon="1.46651">
        <ele>271.641</ele>
        <time>2020-04-05T15:33:47Z</time>
      </trkpt>
      <trkpt lat="43.53567" lon="1.46645">
        <ele>271.79</ele>
        <time>2020-04-05T15:33:53Z</time>
      </trkpt>
      <trkpt lat="43.53569" lon="1.4664">
        <ele>271.887</ele>
        <time>2020-04-05T15:33:58Z</time>
      </trkpt>
      <trkpt lat="43.53573" lon="1.46631">
        <ele>271.983</ele>
        <time>2020-04-05T15:34:04Z</time>
      </trkpt>
      <trkpt lat="43.53576" lon="1.46625">
        <ele>272.06</ele>
        <time>2020-04-05T15:34:09Z</time>
      </trkpt>
      <trkpt lat="43.53579" lon="1.4662">
        <ele>272.154</ele>
        <time>2020-04-05T15:34:15Z</time>
      </trkpt>
      <trkpt lat="43.53582" lon="1.46614">
        <ele>272.257</ele>
        <time>2020-04-05T15:34:21Z</time>
      </trkpt>
      <trkpt lat="43.53584" lon="1.4661">
        <ele>272.329</ele>
        <time>2020-04-05T15:34:26Z</time>
      </trkpt>
      <trkpt lat="43.53581" lon="1.46612">
        <ele>272.402</ele>
        <time>2020-04-05T15:34:32Z</time>
      </trkpt>
      <trkpt lat="43.53581" lon="1.46612">
        <ele>272.415</ele>
        <time>2020-04-05T15:34:38Z</time>
      </trkpt>
      <trkpt lat="43.53582" lon="1.46609">
        <ele>272.509</ele>
        <time>2020-04-05T15:34:44Z</time>
      </trkpt>
      <trkpt lat="43.53584" lon="1.46604">
        <ele>272.605</ele>
        <time>2020-04-05T15:34:50Z</time>
      </trkpt>
      <trkpt lat="43.53586" lon="1.46596">
        <ele>272.68</ele>
        <time>2020-04-05T15:34:55Z</time>
      </trkpt>
      <trkpt lat="43.5359" lon="1.46588">
        <ele>272.753</ele>
        <time>2020-04-05T15:35:01Z</time>
      </trkpt>
      <trkpt lat="43.53593" lon="1.46583">
        <ele>272.806</ele>
        <time>2020-04-05T15:35:06Z</time>
      </trkpt>
      <trkpt lat="43.53596" lon="1.46577">
        <ele>272.852</ele>
        <time>2020-04-05T15:35:11Z</time>
      </trkpt>
      <trkpt lat="43.53601" lon="1.46569">
        <ele>272.906</ele>
        <time>2020-04-05T15:35:17Z</time>
      </trkpt>
      <trkpt lat="43.53605" lon="1.46564">
        <ele>272.953</ele>
        <time>2020-04-05T15:35:22Z</time>
      </trkpt>
      <trkpt lat="43.53608" lon="1.46559">
        <ele>273.009</ele>
        <time>2020-04-05T15:35:27Z</time>
      </trkpt>
      <trkpt lat="43.53611" lon="1.4655">
        <ele>273.08</ele>
        <time>2020-04-05T15:35:33Z</time>
      </trkpt>
      <trkpt lat="43.53611" lon="1.46545">
        <ele>273.138</ele>
        <time>2020-04-05T15:35:38Z</time>
      </trkpt>
      <trkpt lat="43.53614" lon="1.46537">
        <ele>273.207</ele>
        <time>2020-04-05T15:35:44Z</time>
      </trkpt>
      <trkpt lat="43.53619" lon="1.46532">
        <ele>273.287</ele>
        <time>2020-04-05T15:35:50Z</time>
      </trkpt>
      <trkpt lat="43.53622" lon="1.46525">
        <ele>273.362</ele>
        <time>2020-04-05T15:35:55Z</time>
      </trkpt>
      <trkpt lat="43.53626" lon="1.46518">
        <ele>273.459</ele>
        <time>2020-04-05T15:36:01Z</time>
      </trkpt>
      <trkpt lat="43.53629" lon="1.46511">
        <ele>273.545</ele>
        <time>2020-04-05T15:36:06Z</time>
      </trkpt>
      <trkpt lat="43.53633" lon="1.46504">
        <ele>273.649</ele>
        <time>2020-04-05T15:36:12Z</time>
      </trkpt>
      <trkpt lat="43.53635" lon="1.465">
        <ele>273.739</ele>
        <time>2020-04-05T15:36:17Z</time>
      </trkpt>
      <trkpt lat="43.5364" lon="1.46492">
        <ele>273.861</ele>
        <time>2020-04-05T15:36:23Z</time>
      </trkpt>
      <trkpt lat="43.53643" lon="1.46488">
        <ele>273.972</ele>
        <time>2020-04-05T15:36:28Z</time>
      </trkpt>
      <trkpt lat="43.53648" lon="1.46481">
        <ele>274.11</ele>
        <time>2020-04-05T15:36:34Z</time>
      </trkpt>
      <trkpt lat="43.53652" lon="1.46473">
        <ele>274.256</ele>
        <time>2020-04-05T15:36:40Z</time>
      </trkpt>
      <trkpt lat="43.53655" lon="1.46469">
        <ele>274.38</ele>
        <time>2020-04-05T15:36:45Z</time>
      </trkpt>
      <trkpt lat="43.53658" lon="1.46463">
        <ele>274.53</ele>
        <time>2020-04-05T15:36:51Z</time>
      </trkpt>
      <trkpt lat="43.53662" lon="1.46457">
        <ele>274.682</ele>
        <time>2020-04-05T15:36:57Z</time>
      </trkpt>
      <trkpt lat="43.53666" lon="1.46449">
        <ele>274.83</ele>
        <time>2020-04-05T15:37:03Z</time>
      </trkpt>
      <trkpt lat="43.53668" lon="1.46445">
        <ele>274.932</ele>
        <time>2020-04-05T15:37:09Z</time>
      </trkpt>
      <trkpt lat="43.5367" lon="1.46442">
        <ele>275.029</ele>
        <time>2020-04-05T15:37:14Z</time>
      </trkpt>
      <trkpt lat="43.53671" lon="1.46432">
        <ele>275.167</ele>
        <time>2020-04-05T15:37:20Z</time>
      </trkpt>
      <trkpt lat="43.53671" lon="1.46432">
        <ele>275.201</ele>
        <time>2020-04-05T15:37:26Z</time>
      </trkpt>
      <trkpt lat="43.53678" lon="1.4643">
        <ele>275.29</ele>
        <time>2020-04-05T15:37:32Z</time>
      </trkpt>
      <trkpt lat="43.53681" lon="1.46429">
        <ele>275.385</ele>
        <time>2020-04-05T15:37:37Z</time>
      </trkpt>
      <trkpt lat="43.53685" lon="1.46428">
        <ele>275.451</ele>
        <time>2020-04-05T15:37:43Z</time>
      </trkpt>
      <trkpt lat="43.5369" lon="1.46419">
        <ele>275.524</ele>
        <time>2020-04-05T15:37:49Z</time>
      </trkpt>
      <trkpt lat="43.53692" lon="1.46415">
        <ele>275.574</ele>
        <time>2020-04-05T15:37:54Z</time>
      </trkpt>
      <trkpt lat="43.53695" lon="1.46413">
        <ele>275.621</ele>
        <time>2020-04-05T15:38:00Z</time>
      </trkpt>
      <trkpt lat="43.53699" lon="1.46406">
        <ele>275.66</ele>
        <time>2020-04-05T15:38:05Z</time>
      </trkpt>
      <trkpt lat="43.53703" lon="1.46401">
        <ele>275.7</ele>
        <time>2020-04-05T15:38:11Z</time>
      </trkpt>
      <trkpt lat="43.53708" lon="1.46396">
        <ele>275.737</ele>
        <time>2020-04-05T15:38:16Z</time>
      </trkpt>
      <trkpt lat="43.53711" lon="1.46388">
        <ele>275.785</ele>
        <time>2020-04-05T15:38:22Z</time>
      </trkpt>
      <trkpt lat="43.53715" lon="1.46383">
        <ele>275.828</ele>
        <time>2020-04-05T15:38:28Z</time>
      </trkpt>
      <trkpt lat="43.53718" lon="1.4638">
        <ele>275.895</ele>
        <time>2020-04-05T15:38:34Z</time>
      </trkpt>
      <trkpt lat="43.53724" lon="1.46377">
        <ele>275.984</ele>
        <time>2020-04-05T15:38:40Z</time>
      </trkpt>
      <trkpt lat="43.53729" lon="1.46372">
        <ele>276.071</ele>
        <time>2020-04-05T15:38:46Z</time>
      </trkpt>
      <trkpt lat="43.53736" lon="1.46364">
        <ele>276.177</ele>
        <time>2020-04-05T15:38:52Z</time>
      </trkpt>
      <trkpt lat="43.53739" lon="1.46358">
        <ele>276.272</ele>
        <time>2020-04-05T15:38:57Z</time>
      </trkpt>
      <trkpt lat="43.53743" lon="1.46353">
        <ele>276.37</ele>
        <time>2020-04-05T15:39:02Z</time>
      </trkpt>
      <trkpt lat="43.53747" lon="1.46348">
        <ele>276.463</ele>
        <time>2020-04-05T15:39:07Z</time>
      </trkpt>
      <trkpt lat="43.53752" lon="1.46343">
        <ele>276.568</ele>
        <time>2020-04-05T15:39:13Z</time>
      </trkpt>
      <trkpt lat="43.53755" lon="1.46339">
        <ele>276.669</ele>
        <time>2020-04-05T15:39:19Z</time>
      </trkpt>
      <trkpt lat="43.53759" lon="1.46336">
        <ele>276.745</ele>
        <time>2020-04-05T15:39:24Z</time>
      </trkpt>
      <trkpt lat="43.53762" lon="1.46332">
        <ele>276.81</ele>
        <time>2020-04-05T15:39:29Z</time>
      </trkpt>
      <trkpt lat="43.53768" lon="1.46325">
        <ele>276.863</ele>
        <time>2020-04-05T15:39:35Z</time>
      </trkpt>
      <trkpt lat="43.53771" lon="1.46319">
        <ele>276.909</ele>
        <time>2020-04-05T15:39:40Z</time>
      </trkpt>
      <trkpt lat="43.53776" lon="1.46313">
        <ele>276.961</ele>
        <time>2020-04-05T15:39:46Z</time>
      </trkpt>
      <trkpt lat="43.53783" lon="1.46312">
        <ele>277.002</ele>
        <time>2020-04-05T15:39:51Z</time>
      </trkpt>
      <trkpt lat="43.53787" lon="1.46309">
        <ele>277.04</ele>
        <time>2020-04-05T15:39:56Z</time>
      </trkpt>
      <trkpt lat="43.53794" lon="1.46308">
        <ele>277.067</ele>
        <time>2020-04-05T15:40:02Z</time>
      </trkpt>
      <trkpt lat="43.53795" lon="1.46305">
        <ele>277.097</ele>
        <time>2020-04-05T15:40:07Z</time>
      </trkpt>
      <trkpt lat="43.538" lon="1.46301">
        <ele>277.129</ele>
        <time>2020-04-05T15:40:13Z</time>
      </trkpt>
      <trkpt lat="43.53806" lon="1.46298">
        <ele>277.152</ele>
        <time>2020-04-05T15:40:18Z</time>
      </trkpt>
      <trkpt lat="43.5381" lon="1.46293">
        <ele>277.175</ele>
        <time>2020-04-05T15:40:24Z</time>
      </trkpt>
      <trkpt lat="43.53815" lon="1.46284">
        <ele>277.205</ele>
        <time>2020-04-05T15:40:30Z</time>
      </trkpt>
      <trkpt lat="43.53818" lon="1.46279">
        <ele>277.242</ele>
        <time>2020-04-05T15:40:36Z</time>
      </trkpt>
      <trkpt lat="43.53822" lon="1.46273">
        <ele>277.278</ele>
        <time>2020-04-05T15:40:41Z</time>
      </trkpt>
      <trkpt lat="43.53826" lon="1.46268">
        <ele>277.323</ele>
        <time>2020-04-05T15:40:47Z</time>
      </trkpt>
      <trkpt lat="43.53831" lon="1.46265">
        <ele>277.371</ele>
        <time>2020-04-05T15:40:52Z</time>
      </trkpt>
      <trkpt lat="43.53834" lon="1.46261">
        <ele>277.417</ele>
        <time>2020-04-05T15:40:57Z</time>
      </trkpt>
      <trkpt lat="43.53833" lon="1.46251">
        <ele>277.492</ele>
        <time>2020-04-05T15:41:03Z</time>
      </trkpt>
      <trkpt lat="43.53843" lon="1.46244">
        <ele>277.582</ele>
        <time>2020-04-05T15:41:09Z</time>
      </trkpt>
      <trkpt lat="43.53848" lon="1.46239">
        <ele>277.664</ele>
        <time>2020-04-05T15:41:14Z</time>
      </trkpt>
      <trkpt lat="43.5385" lon="1.46237">
        <ele>277.754</ele>
        <time>2020-04-05T15:41:20Z</time>
      </trkpt>
      <trkpt lat="43.53852" lon="1.46235">
        <ele>277.815</ele>
        <time>2020-04-05T15:41:25Z</time>
      </trkpt>
      <trkpt lat="43.5386" lon="1.46231">
        <ele>277.885</ele>
        <time>2020-04-05T15:41:31Z</time>
      </trkpt>
      <trkpt lat="43.53863" lon="1.46226">
        <ele>277.942</ele>
        <time>2020-04-05T15:41:36Z</time>
      </trkpt>
      <trkpt lat="43.53867" lon="1.46219">
        <ele>278.003</ele>
        <time>2020-04-05T15:41:42Z</time>
      </trkpt>
      <trkpt lat="43.53872" lon="1.4621">
        <ele>278.06</ele>
        <time>2020-04-05T15:41:48Z</time>
      </trkpt>
      <trkpt lat="43.53875" lon="1.46206">
        <ele>278.103</ele>
        <time>2020-04-05T15:41:53Z</time>
      </trkpt>
      <trkpt lat="43.53882" lon="1.46203">
        <ele>278.15</ele>
        <time>2020-04-05T15:41:59Z</time>
      </trkpt>
      <trkpt lat="43.53888" lon="1.46196">
        <ele>278.194</ele>
        <time>2020-04-05T15:42:05Z</time>
      </trkpt>
      <trkpt lat="43.53892" lon="1.46193">
        <ele>278.228</ele>
        <time>2020-04-05T15:42:10Z</time>
      </trkpt>
      <trkpt lat="43.53897" lon="1.46185">
        <ele>278.266</ele>
        <time>2020-04-05T15:42:16Z</time>
      </trkpt>
      <trkpt lat="43.539" lon="1.46182">
        <ele>278.297</ele>
        <time>2020-04-05T15:42:22Z</time>
      </trkpt>
      <trkpt lat="43.53903" lon="1.46177">
        <ele>278.321</ele>
        <time>2020-04-05T15:42:28Z</time>
      </trkpt>
      <trkpt lat="43.53906" lon="1.46173">
        <ele>278.335</ele>
        <time>2020-04-05T15:42:33Z</time>
      </trkpt>
      <trkpt lat="43.53915" lon="1.4617">
        <ele>278.366</ele>
        <time>2020-04-05T15:42:39Z</time>
      </trkpt>
      <trkpt lat="43.53921" lon="1.46164">
        <ele>278.408</ele>
        <time>2020-04-05T15:42:45Z</time>
      </trkpt>
      <trkpt lat="43.53926" lon="1.46159">
        <ele>278.451</ele>
        <time>2020-04-05T15:42:50Z</time>
      </trkpt>
      <trkpt lat="43.53927" lon="1.46157">
        <ele>278.474</ele>
        <time>2020-04-05T15:42:56Z</time>
      </trkpt>
      <trkpt lat="43.53927" lon="1.46156">
        <ele>278.483</ele>
        <time>2020-04-05T15:43:02Z</time>
      </trkpt>
      <trkpt lat="43.53928" lon="1.46151">
        <ele>278.511</ele>
        <time>2020-04-05T15:43:08Z</time>
      </trkpt>
      <trkpt lat="43.53931" lon="1.46149">
        <ele>278.609</ele>
        <time>2020-04-05T15:43:13Z</time>
      </trkpt>
      <trkpt lat="43.53931" lon="1.46148">
        <ele>278.62</ele>
        <time>2020-04-05T15:43:18Z</time>
      </trkpt>
      <trkpt lat="43.53931" lon="1.46148">
        <ele>278.634</ele>
        <time>2020-04-05T15:43:24Z</time>
      </trkpt>
      <trkpt lat="43.5393" lon="1.46148">
        <ele>278.646</ele>
        <time>2020-04-05T15:43:29Z</time>
      </trkpt>
      <trkpt lat="43.5393" lon="1.46148">
        <ele>278.682</ele>
        <time>2020-04-05T15:43:34Z</time>
      </trkpt>
      <trkpt lat="43.53931" lon="1.46149">
        <ele>278.724</ele>
        <time>2020-04-05T15:43:40Z</time>
      </trkpt>
      <trkpt lat="43.53932" lon="1.46159">
        <ele>278.813</ele>
        <time>2020-04-05T15:43:46Z</time>
      </trkpt>
      <trkpt lat="43.53935" lon="1.46163">
        <ele>278.94</ele>
        <time>2020-04-05T15:43:51Z</time>
      </trkpt>
      <trkpt lat="43.53937" lon="1.46166">
        <ele>279.014</ele>
        <time>2020-04-05T15:43:56Z</time>
      </trkpt>
      <trkpt lat="43.53937" lon="1.46167">
        <ele>279.086</ele>
        <time>2020-04-05T15:44:01Z</time>
      </trkpt>
      <trkpt lat="43.5394" lon="1.46171">
        <ele>279.169</ele>
        <time>2020-04-05T15:44:06Z</time>
      </trkpt>
      <trkpt lat="43.53945" lon="1.46176">
        <ele>279.276</ele>
        <time>2020-04-05T15:44:12Z</time>
      </trkpt>
      <trkpt lat="43.5395" lon="1.46179">
        <ele>279.353</ele>
        <time>2020-04-05T15:44:17Z</time>
      </trkpt>
      <trkpt lat="43.53954" lon="1.46182">
        <ele>279.421</ele>
        <time>2020-04-05T15:44:22Z</time>
      </trkpt>
      <trkpt lat="43.53961" lon="1.46186">
        <ele>279.491</ele>
        <time>2020-04-05T15:44:28Z</time>
      </trkpt>
      <trkpt lat="43.53967" lon="1.46188">
        <ele>279.542</ele>
        <time>2020-04-05T15:44:33Z</time>
      </trkpt>
      <trkpt lat="43.53975" lon="1.46192">
        <ele>279.594</ele>
        <time>2020-04-05T15:44:39Z</time>
      </trkpt>
      <trkpt lat="43.5398" lon="1.462">
        <ele>279.634</ele>
        <time>2020-04-05T15:44:45Z</time>
      </trkpt>
      <trkpt lat="43.53985" lon="1.46206">
        <ele>279.668</ele>
        <time>2020-04-05T15:44:51Z</time>
      </trkpt>
      <trkpt lat="43.53988" lon="1.46209">
        <ele>279.693</ele>
        <time>2020-04-05T15:44:56Z</time>
      </trkpt>
      <trkpt lat="43.53993" lon="1.46217">
        <ele>279.724</ele>
        <time>2020-04-05T15:45:02Z</time>
      </trkpt>
      <trkpt lat="43.53997" lon="1.46223">
        <ele>279.754</ele>
        <time>2020-04-05T15:45:08Z</time>
      </trkpt>
      <trkpt lat="43.54001" lon="1.46229">
        <ele>279.778</ele>
        <time>2020-04-05T15:45:13Z</time>
      </trkpt>
      <trkpt lat="43.54004" lon="1.46235">
        <ele>279.804</ele>
        <time>2020-04-05T15:45:19Z</time>
      </trkpt>
      <trkpt lat="43.54005" lon="1.4624">
        <ele>279.823</ele>
        <time>2020-04-05T15:45:24Z</time>
      </trkpt>
      <trkpt lat="43.54008" lon="1.46244">
        <ele>279.848</ele>
        <time>2020-04-05T15:45:30Z</time>
      </trkpt>
      <trkpt lat="43.54011" lon="1.46246">
        <ele>279.865</ele>
        <time>2020-04-05T15:45:35Z</time>
      </trkpt>
      <trkpt lat="43.54014" lon="1.4625">
        <ele>279.881</ele>
        <time>2020-04-05T15:45:41Z</time>
      </trkpt>
      <trkpt lat="43.54019" lon="1.46254">
        <ele>279.896</ele>
        <time>2020-04-05T15:45:47Z</time>
      </trkpt>
      <trkpt lat="43.54021" lon="1.46261">
        <ele>279.904</ele>
        <time>2020-04-05T15:45:52Z</time>
      </trkpt>
      <trkpt lat="43.54025" lon="1.46269">
        <ele>279.912</ele>
        <time>2020-04-05T15:45:58Z</time>
      </trkpt>
      <trkpt lat="43.54031" lon="1.46273">
        <ele>279.914</ele>
        <time>2020-04-05T15:46:04Z</time>
      </trkpt>
      <trkpt lat="43.54034" lon="1.46278">
        <ele>279.913</ele>
        <time>2020-04-05T15:46:10Z</time>
      </trkpt>
      <trkpt lat="43.54036" lon="1.46283">
        <ele>279.907</ele>
        <time>2020-04-05T15:46:15Z</time>
      </trkpt>
      <trkpt lat="43.54039" lon="1.46284">
        <ele>279.897</ele>
        <time>2020-04-05T15:46:21Z</time>
      </trkpt>
      <trkpt lat="43.54041" lon="1.46282">
        <ele>279.889</ele>
        <time>2020-04-05T15:46:27Z</time>
      </trkpt>
      <trkpt lat="43.54041" lon="1.46282">
        <ele>279.888</ele>
        <time>2020-04-05T15:46:32Z</time>
      </trkpt>
      <trkpt lat="43.54041" lon="1.46283">
        <ele>279.884</ele>
        <time>2020-04-05T15:46:38Z</time>
      </trkpt>
      <trkpt lat="43.54041" lon="1.46284">
        <ele>279.878</ele>
        <time>2020-04-05T15:46:43Z</time>
      </trkpt>
      <trkpt lat="43.54047" lon="1.4629">
        <ele>279.853</ele>
        <time>2020-04-05T15:46:49Z</time>
      </trkpt>
      <trkpt lat="43.5405" lon="1.46294">
        <ele>279.839</ele>
        <time>2020-04-05T15:46:54Z</time>
      </trkpt>
      <trkpt lat="43.54052" lon="1.46298">
        <ele>279.816</ele>
        <time>2020-04-05T15:47:00Z</time>
      </trkpt>
      <trkpt lat="43.54055" lon="1.46305">
        <ele>279.793</ele>
        <time>2020-04-05T15:47:06Z</time>
      </trkpt>
      <trkpt lat="43.54059" lon="1.46312">
        <ele>279.773</ele>
        <time>2020-04-05T15:47:12Z</time>
      </trkpt>
      <trkpt lat="43.54062" lon="1.46317">
        <ele>279.748</ele>
        <time>2020-04-05T15:47:18Z</time>
      </trkpt>
      <trkpt lat="43.54066" lon="1.4632">
        <ele>279.721</ele>
        <time>2020-04-05T15:47:23Z</time>
      </trkpt>
      <trkpt lat="43.54071" lon="1.46327">
        <ele>279.686</ele>
        <time>2020-04-05T15:47:29Z</time>
      </trkpt>
      <trkpt lat="43.54075" lon="1.46332">
        <ele>279.653</ele>
        <time>2020-04-05T15:47:35Z</time>
      </trkpt>
      <trkpt lat="43.5408" lon="1.46337">
        <ele>279.62</ele>
        <time>2020-04-05T15:47:41Z</time>
      </trkpt>
      <trkpt lat="43.54084" lon="1.46344">
        <ele>279.594</ele>
        <time>2020-04-05T15:47:47Z</time>
      </trkpt>
      <trkpt lat="43.54091" lon="1.46346">
        <ele>279.569</ele>
        <time>2020-04-05T15:47:53Z</time>
      </trkpt>
      <trkpt lat="43.54097" lon="1.46344">
        <ele>279.544</ele>
        <time>2020-04-05T15:47:59Z</time>
      </trkpt>
      <trkpt lat="43.54104" lon="1.46346">
        <ele>279.507</ele>
        <time>2020-04-05T15:48:05Z</time>
      </trkpt>
      <trkpt lat="43.54111" lon="1.46348">
        <ele>279.46</ele>
        <time>2020-04-05T15:48:11Z</time>
      </trkpt>
      <trkpt lat="43.54115" lon="1.4635">
        <ele>279.415</ele>
        <time>2020-04-05T15:48:16Z</time>
      </trkpt>
      <trkpt lat="43.5412" lon="1.46355">
        <ele>279.36</ele>
        <time>2020-04-05T15:48:22Z</time>
      </trkpt>
      <trkpt lat="43.54122" lon="1.46362">
        <ele>279.316</ele>
        <time>2020-04-05T15:48:28Z</time>
      </trkpt>
      <trkpt lat="43.54126" lon="1.46366">
        <ele>279.279</ele>
        <time>2020-04-05T15:48:33Z</time>
      </trkpt>
      <trkpt lat="43.54131" lon="1.46372">
        <ele>279.229</ele>
        <time>2020-04-05T15:48:39Z</time>
      </trkpt>
      <trkpt lat="43.54137" lon="1.46378">
        <ele>279.174</ele>
        <time>2020-04-05T15:48:45Z</time>
      </trkpt>
      <trkpt lat="43.54142" lon="1.46385">
        <ele>279.117</ele>
        <time>2020-04-05T15:48:51Z</time>
      </trkpt>
      <trkpt lat="43.54147" lon="1.4639">
        <ele>279.072</ele>
        <time>2020-04-05T15:48:56Z</time>
      </trkpt>
      <trkpt lat="43.54152" lon="1.46395">
        <ele>279.018</ele>
        <time>2020-04-05T15:49:02Z</time>
      </trkpt>
      <trkpt lat="43.54159" lon="1.464">
        <ele>278.963</ele>
        <time>2020-04-05T15:49:08Z</time>
      </trkpt>
      <trkpt lat="43.54164" lon="1.46407">
        <ele>278.904</ele>
        <time>2020-04-05T15:49:14Z</time>
      </trkpt>
      <trkpt lat="43.54169" lon="1.46413">
        <ele>278.844</ele>
        <time>2020-04-05T15:49:20Z</time>
      </trkpt>
      <trkpt lat="43.54174" lon="1.46416">
        <ele>278.795</ele>
        <time>2020-04-05T15:49:25Z</time>
      </trkpt>
      <trkpt lat="43.54178" lon="1.4642">
        <ele>278.746</ele>
        <time>2020-04-05T15:49:30Z</time>
      </trkpt>
      <trkpt lat="43.54184" lon="1.46426">
        <ele>278.688</ele>
        <time>2020-04-05T15:49:36Z</time>
      </trkpt>
      <trkpt lat="43.54189" lon="1.46433">
        <ele>278.638</ele>
        <time>2020-04-05T15:49:42Z</time>
      </trkpt>
      <trkpt lat="43.54193" lon="1.46437">
        <ele>278.605</ele>
        <time>2020-04-05T15:49:47Z</time>
      </trkpt>
      <trkpt lat="43.54198" lon="1.46444">
        <ele>278.574</ele>
        <time>2020-04-05T15:49:53Z</time>
      </trkpt>
      <trkpt lat="43.54203" lon="1.46448">
        <ele>278.553</ele>
        <time>2020-04-05T15:49:58Z</time>
      </trkpt>
      <trkpt lat="43.54206" lon="1.46452">
        <ele>278.528</ele>
        <time>2020-04-05T15:50:03Z</time>
      </trkpt>
      <trkpt lat="43.54209" lon="1.46457">
        <ele>278.5</ele>
        <time>2020-04-05T15:50:09Z</time>
      </trkpt>
      <trkpt lat="43.54215" lon="1.46463">
        <ele>278.473</ele>
        <time>2020-04-05T15:50:15Z</time>
      </trkpt>
      <trkpt lat="43.54221" lon="1.46469">
        <ele>278.453</ele>
        <time>2020-04-05T15:50:21Z</time>
      </trkpt>
      <trkpt lat="43.54227" lon="1.46476">
        <ele>278.442</ele>
        <time>2020-04-05T15:50:27Z</time>
      </trkpt>
      <trkpt lat="43.5423" lon="1.46482">
        <ele>278.442</ele>
        <time>2020-04-05T15:50:33Z</time>
      </trkpt>
      <trkpt lat="43.54242" lon="1.46483">
        <ele>278.462</ele>
        <time>2020-04-05T15:50:39Z</time>
      </trkpt>
      <trkpt lat="43.54246" lon="1.46483">
        <ele>278.513</ele>
        <time>2020-04-05T15:50:44Z</time>
      </trkpt>
      <trkpt lat="43.54248" lon="1.46479">
        <ele>278.57</ele>
        <time>2020-04-05T15:50:49Z</time>
      </trkpt>
      <trkpt lat="43.54256" lon="1.46473">
        <ele>278.633</ele>
        <time>2020-04-05T15:50:55Z</time>
      </trkpt>
      <trkpt lat="43.54262" lon="1.46468">
        <ele>278.682</ele>
        <time>2020-04-05T15:51:00Z</time>
      </trkpt>
      <trkpt lat="43.54269" lon="1.4646">
        <ele>278.74</ele>
        <time>2020-04-05T15:51:06Z</time>
      </trkpt>
      <trkpt lat="43.54272" lon="1.46455">
        <ele>278.786</ele>
        <time>2020-04-05T15:51:11Z</time>
      </trkpt>
      <trkpt lat="43.54277" lon="1.46449">
        <ele>278.846</ele>
        <time>2020-04-05T15:51:17Z</time>
      </trkpt>
      <trkpt lat="43.54282" lon="1.46446">
        <ele>278.92</ele>
        <time>2020-04-05T15:51:23Z</time>
      </trkpt>
      <trkpt lat="43.54287" lon="1.46441">
        <ele>279.001</ele>
        <time>2020-04-05T15:51:29Z</time>
      </trkpt>
      <trkpt lat="43.54292" lon="1.46435">
        <ele>279.085</ele>
        <time>2020-04-05T15:51:35Z</time>
      </trkpt>
      <trkpt lat="43.54294" lon="1.46426">
        <ele>279.161</ele>
        <time>2020-04-05T15:51:40Z</time>
      </trkpt>
      <trkpt lat="43.54299" lon="1.4642">
        <ele>279.258</ele>
        <time>2020-04-05T15:51:46Z</time>
      </trkpt>
      <trkpt lat="43.54303" lon="1.46414">
        <ele>279.338</ele>
        <time>2020-04-05T15:51:52Z</time>
      </trkpt>
      <trkpt lat="43.54307" lon="1.46406">
        <ele>279.415</ele>
        <time>2020-04-05T15:51:58Z</time>
      </trkpt>
      <trkpt lat="43.54311" lon="1.46401">
        <ele>279.483</ele>
        <time>2020-04-05T15:52:04Z</time>
      </trkpt>
      <trkpt lat="43.54312" lon="1.46401">
        <ele>279.514</ele>
        <time>2020-04-05T15:52:09Z</time>
      </trkpt>
      <trkpt lat="43.54313" lon="1.46397">
        <ele>279.576</ele>
        <time>2020-04-05T15:52:15Z</time>
      </trkpt>
      <trkpt lat="43.54317" lon="1.46391">
        <ele>279.641</ele>
        <time>2020-04-05T15:52:21Z</time>
      </trkpt>
      <trkpt lat="43.54318" lon="1.46389">
        <ele>279.691</ele>
        <time>2020-04-05T15:52:26Z</time>
      </trkpt>
      <trkpt lat="43.54324" lon="1.46392">
        <ele>279.744</ele>
        <time>2020-04-05T15:52:32Z</time>
      </trkpt>
      <trkpt lat="43.5433" lon="1.46394">
        <ele>279.781</ele>
        <time>2020-04-05T15:52:37Z</time>
      </trkpt>
      <trkpt lat="43.54336" lon="1.46398">
        <ele>279.819</ele>
        <time>2020-04-05T15:52:43Z</time>
      </trkpt>
      <trkpt lat="43.54338" lon="1.46404">
        <ele>279.854</ele>
        <time>2020-04-05T15:52:48Z</time>
      </trkpt>
      <trkpt lat="43.54339" lon="1.46416">
        <ele>279.904</ele>
        <time>2020-04-05T15:52:54Z</time>
      </trkpt>
      <trkpt lat="43.54339" lon="1.46424">
        <ele>279.967</ele>
        <time>2020-04-05T15:53:00Z</time>
      </trkpt>
      <trkpt lat="43.54343" lon="1.46432">
        <ele>280.036</ele>
        <time>2020-04-05T15:53:06Z</time>
      </trkpt>
      <trkpt lat="43.54344" lon="1.46436">
        <ele>280.101</ele>
        <time>2020-04-05T15:53:12Z</time>
      </trkpt>
      <trkpt lat="43.54349" lon="1.4644">
        <ele>280.152</ele>
        <time>2020-04-05T15:53:18Z</time>
      </trkpt>
      <trkpt lat="43.54354" lon="1.46442">
        <ele>280.181</ele>
        <time>2020-04-05T15:53:23Z</time>
      </trkpt>
      <trkpt lat="43.54359" lon="1.46447">
        <ele>280.201</ele>
        <time>2020-04-05T15:53:28Z</time>
      </trkpt>
      <trkpt lat="43.54364" lon="1.46451">
        <ele>280.22</ele>
        <time>2020-04-05T15:53:34Z</time>
      </trkpt>
      <trkpt lat="43.54369" lon="1.46458">
        <ele>280.237</ele>
        <time>2020-04-05T15:53:39Z</time>
      </trkpt>
      <trkpt lat="43.54377" lon="1.46461">
        <ele>280.261</ele>
        <time>2020-04-05T15:53:45Z</time>
      </trkpt>
      <trkpt lat="43.54383" lon="1.46467">
        <ele>280.29</ele>
        <time>2020-04-05T15:53:51Z</time>
      </trkpt>
      <trkpt lat="43.54389" lon="1.46471">
        <ele>280.324</ele>
        <time>2020-04-05T15:53:57Z</time>
      </trkpt>
      <trkpt lat="43.54394" lon="1.46472">
        <ele>280.352</ele>
        <time>2020-04-05T15:54:02Z</time>
      </trkpt>
      <trkpt lat="43.54397" lon="1.46473">
        <ele>280.367</ele>
        <time>2020-04-05T15:54:08Z</time>
      </trkpt>
      <trkpt lat="43.54398" lon="1.46477">
        <ele>280.421</ele>
        <time>2020-04-05T15:54:14Z</time>
      </trkpt>
      <trkpt lat="43.54401" lon="1.46482">
        <ele>280.477</ele>
        <time>2020-04-05T15:54:20Z</time>
      </trkpt>
      <trkpt lat="43.54404" lon="1.46483">
        <ele>280.502</ele>
        <time>2020-04-05T15:54:26Z</time>
      </trkpt>
      <trkpt lat="43.54405" lon="1.46485">
        <ele>280.559</ele>
        <time>2020-04-05T15:54:32Z</time>
      </trkpt>
      <trkpt lat="43.54406" lon="1.46489">
        <ele>280.602</ele>
        <time>2020-04-05T15:54:37Z</time>
      </trkpt>
      <trkpt lat="43.54407" lon="1.46488">
        <ele>280.62</ele>
        <time>2020-04-05T15:54:43Z</time>
      </trkpt>
      <trkpt lat="43.54407" lon="1.46488">
        <ele>280.645</ele>
        <time>2020-04-05T15:54:49Z</time>
      </trkpt>
      <trkpt lat="43.54411" lon="1.46484">
        <ele>280.676</ele>
        <time>2020-04-05T15:54:54Z</time>
      </trkpt>
      <trkpt lat="43.54412" lon="1.46483">
        <ele>280.699</ele>
        <time>2020-04-05T15:55:00Z</time>
      </trkpt>
      <trkpt lat="43.54417" lon="1.46482">
        <ele>280.726</ele>
        <time>2020-04-05T15:55:05Z</time>
      </trkpt>
      <trkpt lat="43.54423" lon="1.46483">
        <ele>280.749</ele>
        <time>2020-04-05T15:55:11Z</time>
      </trkpt>
      <trkpt lat="43.54429" lon="1.46485">
        <ele>280.763</ele>
        <time>2020-04-05T15:55:16Z</time>
      </trkpt>
      <trkpt lat="43.54438" lon="1.46482">
        <ele>280.773</ele>
        <time>2020-04-05T15:55:21Z</time>
      </trkpt>
      <trkpt lat="43.54442" lon="1.46493">
        <ele>280.778</ele>
        <time>2020-04-05T15:55:27Z</time>
      </trkpt>
      <trkpt lat="43.54451" lon="1.46497">
        <ele>280.783</ele>
        <time>2020-04-05T15:55:33Z</time>
      </trkpt>
      <trkpt lat="43.54457" lon="1.46504">
        <ele>280.791</ele>
        <time>2020-04-05T15:55:39Z</time>
      </trkpt>
      <trkpt lat="43.54461" lon="1.4651">
        <ele>280.802</ele>
        <time>2020-04-05T15:55:44Z</time>
      </trkpt>
      <trkpt lat="43.54466" lon="1.46517">
        <ele>280.82</ele>
        <time>2020-04-05T15:55:50Z</time>
      </trkpt>
      <trkpt lat="43.5447" lon="1.46521">
        <ele>280.834</ele>
        <time>2020-04-05T15:55:55Z</time>
      </trkpt>
      <trkpt lat="43.54477" lon="1.46525">
        <ele>280.848</ele>
        <time>2020-04-05T15:56:01Z</time>
      </trkpt>
      <trkpt lat="43.54483" lon="1.46532">
        <ele>280.861</ele>
        <time>2020-04-05T15:56:07Z</time>
      </trkpt>
      <trkpt lat="43.54486" lon="1.46537">
        <ele>280.874</ele>
        <time>2020-04-05T15:56:12Z</time>
      </trkpt>
      <trkpt lat="43.54489" lon="1.46543">
        <ele>280.885</ele>
        <time>2020-04-05T15:56:18Z</time>
      </trkpt>
      <trkpt lat="43.54495" lon="1.46545">
        <ele>280.888</ele>
        <time>2020-04-05T15:56:23Z</time>
      </trkpt>
      <trkpt lat="43.54501" lon="1.46551">
        <ele>280.891</ele>
        <time>2020-04-05T15:56:29Z</time>
      </trkpt>
      <trkpt lat="43.54505" lon="1.46557">
        <ele>280.889</ele>
        <time>2020-04-05T15:56:35Z</time>
      </trkpt>
      <trkpt lat="43.5451" lon="1.46563">
        <ele>280.88</ele>
        <time>2020-04-05T15:56:41Z</time>
      </trkpt>
      <trkpt lat="43.54516" lon="1.46568">
        <ele>280.867</ele>
        <time>2020-04-05T15:56:47Z</time>
      </trkpt>
      <trkpt lat="43.5452" lon="1.46574">
        <ele>280.851</ele>
        <time>2020-04-05T15:56:53Z</time>
      </trkpt>
      <trkpt lat="43.54524" lon="1.4658">
        <ele>280.837</ele>
        <time>2020-04-05T15:56:58Z</time>
      </trkpt>
      <trkpt lat="43.54529" lon="1.46586">
        <ele>280.825</ele>
        <time>2020-04-05T15:57:04Z</time>
      </trkpt>
      <trkpt lat="43.54532" lon="1.46591">
        <ele>280.809</ele>
        <time>2020-04-05T15:57:09Z</time>
      </trkpt>
      <trkpt lat="43.54537" lon="1.46594">
        <ele>280.791</ele>
        <time>2020-04-05T15:57:15Z</time>
      </trkpt>
      <trkpt lat="43.54541" lon="1.46596">
        <ele>280.774</ele>
        <time>2020-04-05T15:57:21Z</time>
      </trkpt>
      <trkpt lat="43.54547" lon="1.46606">
        <ele>280.749</ele>
        <time>2020-04-05T15:57:27Z</time>
      </trkpt>
      <trkpt lat="43.54552" lon="1.4661">
        <ele>280.722</ele>
        <time>2020-04-05T15:57:32Z</time>
      </trkpt>
      <trkpt lat="43.54556" lon="1.46616">
        <ele>280.684</ele>
        <time>2020-04-05T15:57:38Z</time>
      </trkpt>
      <trkpt lat="43.54562" lon="1.46618">
        <ele>280.646</ele>
        <time>2020-04-05T15:57:44Z</time>
      </trkpt>
      <trkpt lat="43.54567" lon="1.46617">
        <ele>280.607</ele>
        <time>2020-04-05T15:57:49Z</time>
      </trkpt>
      <trkpt lat="43.54574" lon="1.4662">
        <ele>280.546</ele>
        <time>2020-04-05T15:57:55Z</time>
      </trkpt>
      <trkpt lat="43.5458" lon="1.46622">
        <ele>280.483</ele>
        <time>2020-04-05T15:58:00Z</time>
      </trkpt>
      <trkpt lat="43.54585" lon="1.46623">
        <ele>280.391</ele>
        <time>2020-04-05T15:58:06Z</time>
      </trkpt>
      <trkpt lat="43.54588" lon="1.46623">
        <ele>280.303</ele>
        <time>2020-04-05T15:58:12Z</time>
      </trkpt>
      <trkpt lat="43.54592" lon="1.46623">
        <ele>280.213</ele>
        <time>2020-04-05T15:58:17Z</time>
      </trkpt>
      <trkpt lat="43.54598" lon="1.46622">
        <ele>280.102</ele>
        <time>2020-04-05T15:58:23Z</time>
      </trkpt>
      <trkpt lat="43.54605" lon="1.46622">
        <ele>279.989</ele>
        <time>2020-04-05T15:58:29Z</time>
      </trkpt>
      <trkpt lat="43.54609" lon="1.46621">
        <ele>279.911</ele>
        <time>2020-04-05T15:58:34Z</time>
      </trkpt>
      <trkpt lat="43.54616" lon="1.4662">
        <ele>279.817</ele>
        <time>2020-04-05T15:58:39Z</time>
      </trkpt>
      <trkpt lat="43.54621" lon="1.46619">
        <ele>279.724</ele>
        <time>2020-04-05T15:58:44Z</time>
      </trkpt>
      <trkpt lat="43.54627" lon="1.46618">
        <ele>279.63</ele>
        <time>2020-04-05T15:58:50Z</time>
      </trkpt>
      <trkpt lat="43.54634" lon="1.46616">
        <ele>279.546</ele>
        <time>2020-04-05T15:58:56Z</time>
      </trkpt>
      <trkpt lat="43.5464" lon="1.46612">
        <ele>279.45</ele>
        <time>2020-04-05T15:59:02Z</time>
      </trkpt>
      <trkpt lat="43.54643" lon="1.46609">
        <ele>279.363</ele>
        <time>2020-04-05T15:59:07Z</time>
      </trkpt>
      <trkpt lat="43.54647" lon="1.46604">
        <ele>279.282</ele>
        <time>2020-04-05T15:59:12Z</time>
      </trkpt>
      <trkpt lat="43.54654" lon="1.46603">
        <ele>279.207</ele>
        <time>2020-04-05T15:59:17Z</time>
      </trkpt>
      <trkpt lat="43.5466" lon="1.46606">
        <ele>279.122</ele>
        <time>2020-04-05T15:59:23Z</time>
      </trkpt>
      <trkpt lat="43.54671" lon="1.46604">
        <ele>279.056</ele>
        <time>2020-04-05T15:59:28Z</time>
      </trkpt>
      <trkpt lat="43.54677" lon="1.46604">
        <ele>278.979</ele>
        <time>2020-04-05T15:59:34Z</time>
      </trkpt>
      <trkpt lat="43.54682" lon="1.46612">
        <ele>278.89</ele>
        <time>2020-04-05T15:59:40Z</time>
      </trkpt>
      <trkpt lat="43.54686" lon="1.46617">
        <ele>278.798</ele>
        <time>2020-04-05T15:59:45Z</time>
      </trkpt>
      <trkpt lat="43.5469" lon="1.46624">
        <ele>278.672</ele>
        <time>2020-04-05T15:59:51Z</time>
      </trkpt>
      <trkpt lat="43.54692" lon="1.46629">
        <ele>278.554</ele>
        <time>2020-04-05T15:59:57Z</time>
      </trkpt>
      <trkpt lat="43.54692" lon="1.46634">
        <ele>278.44</ele>
        <time>2020-04-05T16:00:02Z</time>
      </trkpt>
      <trkpt lat="43.54692" lon="1.46637">
        <ele>278.33</ele>
        <time>2020-04-05T16:00:08Z</time>
      </trkpt>
      <trkpt lat="43.54693" lon="1.4664">
        <ele>278.227</ele>
        <time>2020-04-05T16:00:13Z</time>
      </trkpt>
      <trkpt lat="43.54695" lon="1.46652">
        <ele>278.115</ele>
        <time>2020-04-05T16:00:19Z</time>
      </trkpt>
      <trkpt lat="43.54699" lon="1.46659">
        <ele>277.989</ele>
        <time>2020-04-05T16:00:24Z</time>
      </trkpt>
      <trkpt lat="43.54708" lon="1.46665">
        <ele>277.873</ele>
        <time>2020-04-05T16:00:29Z</time>
      </trkpt>
      <trkpt lat="43.54708" lon="1.46666">
        <ele>277.855</ele>
        <time>2020-04-05T16:00:35Z</time>
      </trkpt>
      <trkpt lat="43.54711" lon="1.46668">
        <ele>277.673</ele>
        <time>2020-04-05T16:00:41Z</time>
      </trkpt>
      <trkpt lat="43.54706" lon="1.46671">
        <ele>277.503</ele>
        <time>2020-04-05T16:00:47Z</time>
      </trkpt>
      <trkpt lat="43.547" lon="1.46673">
        <ele>277.357</ele>
        <time>2020-04-05T16:00:52Z</time>
      </trkpt>
      <trkpt lat="43.54692" lon="1.46676">
        <ele>277.187</ele>
        <time>2020-04-05T16:00:58Z</time>
      </trkpt>
      <trkpt lat="43.54684" lon="1.46677">
        <ele>277.028</ele>
        <time>2020-04-05T16:01:04Z</time>
      </trkpt>
      <trkpt lat="43.5468" lon="1.46677">
        <ele>276.897</ele>
        <time>2020-04-05T16:01:09Z</time>
      </trkpt>
      <trkpt lat="43.54675" lon="1.46679">
        <ele>276.74</ele>
        <time>2020-04-05T16:01:15Z</time>
      </trkpt>
      <trkpt lat="43.5467" lon="1.4668">
        <ele>276.568</ele>
        <time>2020-04-05T16:01:21Z</time>
      </trkpt>
      <trkpt lat="43.54664" lon="1.46684">
        <ele>276.387</ele>
        <time>2020-04-05T16:01:27Z</time>
      </trkpt>
      <trkpt lat="43.54659" lon="1.46685">
        <ele>276.237</ele>
        <time>2020-04-05T16:01:32Z</time>
      </trkpt>
      <trkpt lat="43.54651" lon="1.46685">
        <ele>276.062</ele>
        <time>2020-04-05T16:01:38Z</time>
      </trkpt>
      <trkpt lat="43.54644" lon="1.4669">
        <ele>275.892</ele>
        <time>2020-04-05T16:01:44Z</time>
      </trkpt>
      <trkpt lat="43.54638" lon="1.46693">
        <ele>275.729</ele>
        <time>2020-04-05T16:01:50Z</time>
      </trkpt>
      <trkpt lat="43.54633" lon="1.46696">
        <ele>275.6</ele>
        <time>2020-04-05T16:01:55Z</time>
      </trkpt>
      <trkpt lat="43.54627" lon="1.46698">
        <ele>275.452</ele>
        <time>2020-04-05T16:02:01Z</time>
      </trkpt>
      <trkpt lat="43.54622" lon="1.467">
        <ele>275.34</ele>
        <time>2020-04-05T16:02:06Z</time>
      </trkpt>
      <trkpt lat="43.54619" lon="1.46702">
        <ele>275.25</ele>
        <time>2020-04-05T16:02:11Z</time>
      </trkpt>
      <trkpt lat="43.54613" lon="1.46705">
        <ele>275.112</ele>
        <time>2020-04-05T16:02:17Z</time>
      </trkpt>
      <trkpt lat="43.54608" lon="1.46709">
        <ele>274.991</ele>
        <time>2020-04-05T16:02:22Z</time>
      </trkpt>
      <trkpt lat="43.54604" lon="1.46713">
        <ele>274.872</ele>
        <time>2020-04-05T16:02:27Z</time>
      </trkpt>
      <trkpt lat="43.54601" lon="1.46717">
        <ele>274.793</ele>
        <time>2020-04-05T16:02:33Z</time>
      </trkpt>
      <trkpt lat="43.54601" lon="1.46718">
        <ele>274.78</ele>
        <time>2020-04-05T16:02:38Z</time>
      </trkpt>
      <trkpt lat="43.54601" lon="1.46718">
        <ele>274.764</ele>
        <time>2020-04-05T16:02:44Z</time>
      </trkpt>
      <trkpt lat="43.54601" lon="1.46719">
        <ele>274.75</ele>
        <time>2020-04-05T16:02:49Z</time>
      </trkpt>
      <trkpt lat="43.54601" lon="1.4672">
        <ele>274.736</ele>
        <time>2020-04-05T16:02:54Z</time>
      </trkpt>
      <trkpt lat="43.54601" lon="1.46721">
        <ele>274.719</ele>
        <time>2020-04-05T16:03:00Z</time>
      </trkpt>
      <trkpt lat="43.54601" lon="1.46722">
        <ele>274.702</ele>
        <time>2020-04-05T16:03:06Z</time>
      </trkpt>
      <trkpt lat="43.546" lon="1.46722">
        <ele>274.657</ele>
        <time>2020-04-05T16:03:12Z</time>
      </trkpt>
      <trkpt lat="43.54599" lon="1.46722">
        <ele>274.639</ele>
        <time>2020-04-05T16:03:18Z</time>
      </trkpt>
      <trkpt lat="43.54599" lon="1.46722">
        <ele>274.621</ele>
        <time>2020-04-05T16:03:24Z</time>
      </trkpt>
      <trkpt lat="43.54599" lon="1.46721">
        <ele>274.604</ele>
        <time>2020-04-05T16:03:30Z</time>
      </trkpt>
      <trkpt lat="43.54599" lon="1.46721">
        <ele>274.587</ele>
        <time>2020-04-05T16:03:36Z</time>
      </trkpt>
      <trkpt lat="43.54599" lon="1.46721">
        <ele>274.518</ele>
        <time>2020-04-05T16:03:41Z</time>
      </trkpt>
      <trkpt lat="43.54597" lon="1.46722">
        <ele>274.473</ele>
        <time>2020-04-05T16:03:47Z</time>
      </trkpt>
      <trkpt lat="43.54598" lon="1.46722">
        <ele>274.432</ele>
        <time>2020-04-05T16:03:52Z</time>
      </trkpt>
      <trkpt lat="43.54597" lon="1.46723">
        <ele>274.365</ele>
        <time>2020-04-05T16:03:58Z</time>
      </trkpt>
      <trkpt lat="43.54593" lon="1.46724">
        <ele>274.256</ele>
        <time>2020-04-05T16:04:03Z</time>
      </trkpt>
      <trkpt lat="43.54592" lon="1.46725">
        <ele>274.221</ele>
        <time>2020-04-05T16:04:08Z</time>
      </trkpt>
      <trkpt lat="43.54592" lon="1.46725">
        <ele>274.209</ele>
        <time>2020-04-05T16:04:13Z</time>
      </trkpt>
      <trkpt lat="43.54592" lon="1.46725">
        <ele>274.133</ele>
        <time>2020-04-05T16:04:19Z</time>
      </trkpt>
      <trkpt lat="43.54586" lon="1.46726">
        <ele>274.002</ele>
        <time>2020-04-05T16:04:25Z</time>
      </trkpt>
      <trkpt lat="43.54583" lon="1.46727">
        <ele>273.9</ele>
        <time>2020-04-05T16:04:30Z</time>
      </trkpt>
      <trkpt lat="43.54578" lon="1.46728">
        <ele>273.806</ele>
        <time>2020-04-05T16:04:35Z</time>
      </trkpt>
      <trkpt lat="43.54571" lon="1.4673">
        <ele>273.713</ele>
        <time>2020-04-05T16:04:41Z</time>
      </trkpt>
      <trkpt lat="43.54567" lon="1.4673">
        <ele>273.658</ele>
        <time>2020-04-05T16:04:46Z</time>
      </trkpt>
      <trkpt lat="43.5456" lon="1.46731">
        <ele>273.588</ele>
        <time>2020-04-05T16:04:52Z</time>
      </trkpt>
      <trkpt lat="43.54554" lon="1.46735">
        <ele>273.54</ele>
        <time>2020-04-05T16:04:57Z</time>
      </trkpt>
      <trkpt lat="43.54548" lon="1.4674">
        <ele>273.495</ele>
        <time>2020-04-05T16:05:03Z</time>
      </trkpt>
      <trkpt lat="43.54545" lon="1.46741">
        <ele>273.469</ele>
        <time>2020-04-05T16:05:08Z</time>
      </trkpt>
      <trkpt lat="43.54537" lon="1.46744">
        <ele>273.451</ele>
        <time>2020-04-05T16:05:14Z</time>
      </trkpt>
      <trkpt lat="43.54534" lon="1.46744">
        <ele>273.443</ele>
        <time>2020-04-05T16:05:19Z</time>
      </trkpt>
      <trkpt lat="43.5453" lon="1.46745">
        <ele>273.44</ele>
        <time>2020-04-05T16:05:25Z</time>
      </trkpt>
      <trkpt lat="43.54525" lon="1.46746">
        <ele>273.442</ele>
        <time>2020-04-05T16:05:30Z</time>
      </trkpt>
      <trkpt lat="43.54523" lon="1.46748">
        <ele>273.45</ele>
        <time>2020-04-05T16:05:36Z</time>
      </trkpt>
      <trkpt lat="43.54512" lon="1.46758">
        <ele>273.468</ele>
        <time>2020-04-05T16:05:42Z</time>
      </trkpt>
      <trkpt lat="43.54505" lon="1.46764">
        <ele>273.483</ele>
        <time>2020-04-05T16:05:47Z</time>
      </trkpt>
      <trkpt lat="43.54498" lon="1.4677">
        <ele>273.502</ele>
        <time>2020-04-05T16:05:52Z</time>
      </trkpt>
      <trkpt lat="43.54492" lon="1.46776">
        <ele>273.526</ele>
        <time>2020-04-05T16:05:58Z</time>
      </trkpt>
      <trkpt lat="43.54488" lon="1.46779">
        <ele>273.549</ele>
        <time>2020-04-05T16:06:03Z</time>
      </trkpt>
      <trkpt lat="43.54482" lon="1.46783">
        <ele>273.579</ele>
        <time>2020-04-05T16:06:09Z</time>
      </trkpt>
      <trkpt lat="43.54476" lon="1.46789">
        <ele>273.609</ele>
        <time>2020-04-05T16:06:15Z</time>
      </trkpt>
      <trkpt lat="43.54472" lon="1.46794">
        <ele>273.633</ele>
        <time>2020-04-05T16:06:20Z</time>
      </trkpt>
      <trkpt lat="43.54466" lon="1.46796">
        <ele>273.661</ele>
        <time>2020-04-05T16:06:26Z</time>
      </trkpt>
      <trkpt lat="43.54462" lon="1.46801">
        <ele>273.683</ele>
        <time>2020-04-05T16:06:31Z</time>
      </trkpt>
      <trkpt lat="43.54457" lon="1.46805">
        <ele>273.706</ele>
        <time>2020-04-05T16:06:37Z</time>
      </trkpt>
      <trkpt lat="43.54451" lon="1.46806">
        <ele>273.724</ele>
        <time>2020-04-05T16:06:43Z</time>
      </trkpt>
      <trkpt lat="43.54447" lon="1.4681">
        <ele>273.739</ele>
        <time>2020-04-05T16:06:48Z</time>
      </trkpt>
      <trkpt lat="43.54442" lon="1.46813">
        <ele>273.751</ele>
        <time>2020-04-05T16:06:53Z</time>
      </trkpt>
      <trkpt lat="43.54439" lon="1.46818">
        <ele>273.756</ele>
        <time>2020-04-05T16:06:59Z</time>
      </trkpt>
      <trkpt lat="43.54434" lon="1.46821">
        <ele>273.756</ele>
        <time>2020-04-05T16:07:04Z</time>
      </trkpt>
      <trkpt lat="43.54431" lon="1.46823">
        <ele>273.749</ele>
        <time>2020-04-05T16:07:10Z</time>
      </trkpt>
      <trkpt lat="43.54428" lon="1.46834">
        <ele>273.733</ele>
        <time>2020-04-05T16:07:15Z</time>
      </trkpt>
      <trkpt lat="43.54429" lon="1.46849">
        <ele>273.715</ele>
        <time>2020-04-05T16:07:20Z</time>
      </trkpt>
      <trkpt lat="43.54429" lon="1.46856">
        <ele>273.698</ele>
        <time>2020-04-05T16:07:26Z</time>
      </trkpt>
      <trkpt lat="43.54429" lon="1.46856">
        <ele>273.692</ele>
        <time>2020-04-05T16:07:31Z</time>
      </trkpt>
      <trkpt lat="43.54431" lon="1.46857">
        <ele>273.665</ele>
        <time>2020-04-05T16:07:36Z</time>
      </trkpt>
      <trkpt lat="43.54433" lon="1.46866">
        <ele>273.62</ele>
        <time>2020-04-05T16:07:42Z</time>
      </trkpt>
      <trkpt lat="43.54436" lon="1.46873">
        <ele>273.575</ele>
        <time>2020-04-05T16:07:48Z</time>
      </trkpt>
      <trkpt lat="43.54439" lon="1.46881">
        <ele>273.529</ele>
        <time>2020-04-05T16:07:54Z</time>
      </trkpt>
      <trkpt lat="43.54443" lon="1.46894">
        <ele>273.492</ele>
        <time>2020-04-05T16:08:00Z</time>
      </trkpt>
      <trkpt lat="43.54444" lon="1.46901">
        <ele>273.457</ele>
        <time>2020-04-05T16:08:06Z</time>
      </trkpt>
      <trkpt lat="43.54446" lon="1.46909">
        <ele>273.423</ele>
        <time>2020-04-05T16:08:12Z</time>
      </trkpt>
      <trkpt lat="43.54447" lon="1.46917">
        <ele>273.397</ele>
        <time>2020-04-05T16:08:17Z</time>
      </trkpt>
      <trkpt lat="43.54449" lon="1.46928">
        <ele>273.374</ele>
        <time>2020-04-05T16:08:23Z</time>
      </trkpt>
      <trkpt lat="43.54452" lon="1.46932">
        <ele>273.356</ele>
        <time>2020-04-05T16:08:28Z</time>
      </trkpt>
      <trkpt lat="43.54455" lon="1.46939">
        <ele>273.338</ele>
        <time>2020-04-05T16:08:34Z</time>
      </trkpt>
      <trkpt lat="43.54459" lon="1.46945">
        <ele>273.324</ele>
        <time>2020-04-05T16:08:40Z</time>
      </trkpt>
      <trkpt lat="43.54461" lon="1.46953">
        <ele>273.31</ele>
        <time>2020-04-05T16:08:45Z</time>
      </trkpt>
      <trkpt lat="43.54465" lon="1.46959">
        <ele>273.302</ele>
        <time>2020-04-05T16:08:50Z</time>
      </trkpt>
      <trkpt lat="43.54477" lon="1.46956">
        <ele>273.301</ele>
        <time>2020-04-05T16:08:56Z</time>
      </trkpt>
      <trkpt lat="43.54481" lon="1.46955">
        <ele>273.288</ele>
        <time>2020-04-05T16:09:02Z</time>
      </trkpt>
      <trkpt lat="43.54484" lon="1.46958">
        <ele>273.256</ele>
        <time>2020-04-05T16:09:08Z</time>
      </trkpt>
      <trkpt lat="43.54486" lon="1.46968">
        <ele>273.208</ele>
        <time>2020-04-05T16:09:14Z</time>
      </trkpt>
      <trkpt lat="43.54488" lon="1.46976">
        <ele>273.161</ele>
        <time>2020-04-05T16:09:19Z</time>
      </trkpt>
      <trkpt lat="43.54492" lon="1.46986">
        <ele>273.108</ele>
        <time>2020-04-05T16:09:25Z</time>
      </trkpt>
      <trkpt lat="43.54495" lon="1.46992">
        <ele>273.055</ele>
        <time>2020-04-05T16:09:30Z</time>
      </trkpt>
      <trkpt lat="43.54497" lon="1.46997">
        <ele>273.023</ele>
        <time>2020-04-05T16:09:35Z</time>
      </trkpt>
      <trkpt lat="43.545" lon="1.47006">
        <ele>272.971</ele>
        <time>2020-04-05T16:09:41Z</time>
      </trkpt>
      <trkpt lat="43.54507" lon="1.47012">
        <ele>272.935</ele>
        <time>2020-04-05T16:09:46Z</time>
      </trkpt>
      <trkpt lat="43.54511" lon="1.47019">
        <ele>272.907</ele>
        <time>2020-04-05T16:09:52Z</time>
      </trkpt>
      <trkpt lat="43.54511" lon="1.47026">
        <ele>272.878</ele>
        <time>2020-04-05T16:09:58Z</time>
      </trkpt>
      <trkpt lat="43.54514" lon="1.47032">
        <ele>272.843</ele>
        <time>2020-04-05T16:10:04Z</time>
      </trkpt>
      <trkpt lat="43.54524" lon="1.47037">
        <ele>272.812</ele>
        <time>2020-04-05T16:10:09Z</time>
      </trkpt>
      <trkpt lat="43.5453" lon="1.47039">
        <ele>272.785</ele>
        <time>2020-04-05T16:10:15Z</time>
      </trkpt>
      <trkpt lat="43.54533" lon="1.47039">
        <ele>272.753</ele>
        <time>2020-04-05T16:10:20Z</time>
      </trkpt>
      <trkpt lat="43.54537" lon="1.47041">
        <ele>272.712</ele>
        <time>2020-04-05T16:10:26Z</time>
      </trkpt>
      <trkpt lat="43.5454" lon="1.47046">
        <ele>272.668</ele>
        <time>2020-04-05T16:10:31Z</time>
      </trkpt>
      <trkpt lat="43.5454" lon="1.47061">
        <ele>272.612</ele>
        <time>2020-04-05T16:10:37Z</time>
      </trkpt>
      <trkpt lat="43.54538" lon="1.4707">
        <ele>272.575</ele>
        <time>2020-04-05T16:10:42Z</time>
      </trkpt>
      <trkpt lat="43.54538" lon="1.47073">
        <ele>272.496</ele>
        <time>2020-04-05T16:10:48Z</time>
      </trkpt>
      <trkpt lat="43.54539" lon="1.47076">
        <ele>272.436</ele>
        <time>2020-04-05T16:10:54Z</time>
      </trkpt>
      <trkpt lat="43.54539" lon="1.47078">
        <ele>272.353</ele>
        <time>2020-04-05T16:10:59Z</time>
      </trkpt>
      <trkpt lat="43.54541" lon="1.47088">
        <ele>272.264</ele>
        <time>2020-04-05T16:11:05Z</time>
      </trkpt>
      <trkpt lat="43.54544" lon="1.47091">
        <ele>272.154</ele>
        <time>2020-04-05T16:11:11Z</time>
      </trkpt>
      <trkpt lat="43.54546" lon="1.47091">
        <ele>272.072</ele>
        <time>2020-04-05T16:11:16Z</time>
      </trkpt>
      <trkpt lat="43.54549" lon="1.47096">
        <ele>271.958</ele>
        <time>2020-04-05T16:11:22Z</time>
      </trkpt>
      <trkpt lat="43.54549" lon="1.47099">
        <ele>271.84</ele>
        <time>2020-04-05T16:11:27Z</time>
      </trkpt>
      <trkpt lat="43.54551" lon="1.47104">
        <ele>271.717</ele>
        <time>2020-04-05T16:11:33Z</time>
      </trkpt>
      <trkpt lat="43.54554" lon="1.4711">
        <ele>271.616</ele>
        <time>2020-04-05T16:11:38Z</time>
      </trkpt>
      <trkpt lat="43.54556" lon="1.47116">
        <ele>271.488</ele>
        <time>2020-04-05T16:11:44Z</time>
      </trkpt>
      <trkpt lat="43.54558" lon="1.4712">
        <ele>271.38</ele>
        <time>2020-04-05T16:11:49Z</time>
      </trkpt>
      <trkpt lat="43.5456" lon="1.47123">
        <ele>271.287</ele>
        <time>2020-04-05T16:11:55Z</time>
      </trkpt>
      <trkpt lat="43.5456" lon="1.47126">
        <ele>271.243</ele>
        <time>2020-04-05T16:12:01Z</time>
      </trkpt>
      <trkpt lat="43.54557" lon="1.47138">
        <ele>271.142</ele>
        <time>2020-04-05T16:12:06Z</time>
      </trkpt>
      <trkpt lat="43.54571" lon="1.47136">
        <ele>270.956</ele>
        <time>2020-04-05T16:12:12Z</time>
      </trkpt>
      <trkpt lat="43.54572" lon="1.47142">
        <ele>270.809</ele>
        <time>2020-04-05T16:12:17Z</time>
      </trkpt>
      <trkpt lat="43.54572" lon="1.47143">
        <ele>270.665</ele>
        <time>2020-04-05T16:12:22Z</time>
      </trkpt>
      <trkpt lat="43.54572" lon="1.47145">
        <ele>270.596</ele>
        <time>2020-04-05T16:12:28Z</time>
      </trkpt>
      <trkpt lat="43.54573" lon="1.47152">
        <ele>270.525</ele>
        <time>2020-04-05T16:12:33Z</time>
      </trkpt>
      <trkpt lat="43.54576" lon="1.47156">
        <ele>270.387</ele>
        <time>2020-04-05T16:12:39Z</time>
      </trkpt>
      <trkpt lat="43.54577" lon="1.47158">
        <ele>270.252</ele>
        <time>2020-04-05T16:12:44Z</time>
      </trkpt>
      <trkpt lat="43.54582" lon="1.47168">
        <ele>270.116</ele>
        <time>2020-04-05T16:12:49Z</time>
      </trkpt>
      <trkpt lat="43.54587" lon="1.47174">
        <ele>269.916</ele>
        <time>2020-04-05T16:12:55Z</time>
      </trkpt>
      <trkpt lat="43.54587" lon="1.47176">
        <ele>269.899</ele>
        <time>2020-04-05T16:13:00Z</time>
      </trkpt>
      <trkpt lat="43.54586" lon="1.47174">
        <ele>269.788</ele>
        <time>2020-04-05T16:13:06Z</time>
      </trkpt>
      <trkpt lat="43.54586" lon="1.47173">
        <ele>269.767</ele>
        <time>2020-04-05T16:13:12Z</time>
      </trkpt>
      <trkpt lat="43.54586" lon="1.47173">
        <ele>269.618</ele>
        <time>2020-04-05T16:13:18Z</time>
      </trkpt>
      <trkpt lat="43.54586" lon="1.47175">
        <ele>269.474</ele>
        <time>2020-04-05T16:13:23Z</time>
      </trkpt>
      <trkpt lat="43.54588" lon="1.4718">
        <ele>269.264</ele>
        <time>2020-04-05T16:13:29Z</time>
      </trkpt>
      <trkpt lat="43.54589" lon="1.47185">
        <ele>269.151</ele>
        <time>2020-04-05T16:13:34Z</time>
      </trkpt>
      <trkpt lat="43.5459" lon="1.47188">
        <ele>269</ele>
        <time>2020-04-05T16:13:40Z</time>
      </trkpt>
      <trkpt lat="43.54591" lon="1.47194">
        <ele>268.818</ele>
        <time>2020-04-05T16:13:46Z</time>
      </trkpt>
      <trkpt lat="43.54593" lon="1.47199">
        <ele>268.738</ele>
        <time>2020-04-05T16:13:51Z</time>
      </trkpt>
      <trkpt lat="43.54594" lon="1.47206">
        <ele>268.568</ele>
        <time>2020-04-05T16:13:56Z</time>
      </trkpt>
      <trkpt lat="43.54598" lon="1.47212">
        <ele>268.399</ele>
        <time>2020-04-05T16:14:02Z</time>
      </trkpt>
      <trkpt lat="43.54599" lon="1.47217">
        <ele>268.207</ele>
        <time>2020-04-05T16:14:08Z</time>
      </trkpt>
      <trkpt lat="43.54599" lon="1.47222">
        <ele>268.022</ele>
        <time>2020-04-05T16:14:14Z</time>
      </trkpt>
      <trkpt lat="43.54602" lon="1.47226">
        <ele>267.9</ele>
        <time>2020-04-05T16:14:19Z</time>
      </trkpt>
      <trkpt lat="43.54605" lon="1.47229">
        <ele>267.748</ele>
        <time>2020-04-05T16:14:25Z</time>
      </trkpt>
      <trkpt lat="43.54609" lon="1.47233">
        <ele>267.614</ele>
        <time>2020-04-05T16:14:31Z</time>
      </trkpt>
      <trkpt lat="43.54617" lon="1.47236">
        <ele>267.459</ele>
        <time>2020-04-05T16:14:36Z</time>
      </trkpt>
      <trkpt lat="43.54621" lon="1.47239">
        <ele>267.33</ele>
        <time>2020-04-05T16:14:42Z</time>
      </trkpt>
      <trkpt lat="43.54623" lon="1.4724">
        <ele>267.256</ele>
        <time>2020-04-05T16:14:47Z</time>
      </trkpt>
      <trkpt lat="43.54625" lon="1.47246">
        <ele>267.146</ele>
        <time>2020-04-05T16:14:52Z</time>
      </trkpt>
      <trkpt lat="43.54625" lon="1.47258">
        <ele>266.967</ele>
        <time>2020-04-05T16:14:58Z</time>
      </trkpt>
      <trkpt lat="43.54623" lon="1.47267">
        <ele>266.787</ele>
        <time>2020-04-05T16:15:04Z</time>
      </trkpt>
      <trkpt lat="43.54622" lon="1.47277">
        <ele>266.603</ele>
        <time>2020-04-05T16:15:10Z</time>
      </trkpt>
      <trkpt lat="43.54624" lon="1.47282">
        <ele>266.513</ele>
        <time>2020-04-05T16:15:16Z</time>
      </trkpt>
      <trkpt lat="43.54626" lon="1.47288">
        <ele>266.318</ele>
        <time>2020-04-05T16:15:22Z</time>
      </trkpt>
      <trkpt lat="43.5463" lon="1.47292">
        <ele>266.124</ele>
        <time>2020-04-05T16:15:28Z</time>
      </trkpt>
      <trkpt lat="43.54636" lon="1.47295">
        <ele>265.898</ele>
        <time>2020-04-05T16:15:34Z</time>
      </trkpt>
      <trkpt lat="43.54637" lon="1.47292">
        <ele>265.732</ele>
        <time>2020-04-05T16:15:40Z</time>
      </trkpt>
      <trkpt lat="43.5464" lon="1.47294">
        <ele>265.561</ele>
        <time>2020-04-05T16:15:45Z</time>
      </trkpt>
      <trkpt lat="43.54643" lon="1.47301">
        <ele>265.344</ele>
        <time>2020-04-05T16:15:51Z</time>
      </trkpt>
      <trkpt lat="43.54645" lon="1.47297">
        <ele>265.239</ele>
        <time>2020-04-05T16:15:56Z</time>
      </trkpt>
      <trkpt lat="43.54648" lon="1.47301">
        <ele>264.99</ele>
        <time>2020-04-05T16:16:02Z</time>
      </trkpt>
      <trkpt lat="43.5465" lon="1.47304">
        <ele>264.746</ele>
        <time>2020-04-05T16:16:07Z</time>
      </trkpt>
      <trkpt lat="43.54645" lon="1.47311">
        <ele>264.505</ele>
        <time>2020-04-05T16:16:12Z</time>
      </trkpt>
      <trkpt lat="43.54642" lon="1.4732">
        <ele>264.269</ele>
        <time>2020-04-05T16:16:17Z</time>
      </trkpt>
      <trkpt lat="43.54639" lon="1.47328">
        <ele>264.119</ele>
        <time>2020-04-05T16:16:22Z</time>
      </trkpt>
      <trkpt lat="43.54644" lon="1.47334">
        <ele>263.825</ele>
        <time>2020-04-05T16:16:28Z</time>
      </trkpt>
      <trkpt lat="43.54651" lon="1.47339">
        <ele>263.584</ele>
        <time>2020-04-05T16:16:33Z</time>
      </trkpt>
      <trkpt lat="43.54654" lon="1.47346">
        <ele>263.299</ele>
        <time>2020-04-05T16:16:39Z</time>
      </trkpt>
      <trkpt lat="43.54659" lon="1.47355">
        <ele>263.019</ele>
        <time>2020-04-05T16:16:45Z</time>
      </trkpt>
      <trkpt lat="43.54663" lon="1.47362">
        <ele>262.748</ele>
        <time>2020-04-05T16:16:51Z</time>
      </trkpt>
      <trkpt lat="43.54669" lon="1.47365">
        <ele>262.526</ele>
        <time>2020-04-05T16:16:56Z</time>
      </trkpt>
      <trkpt lat="43.54673" lon="1.47369">
        <ele>262.342</ele>
        <time>2020-04-05T16:17:01Z</time>
      </trkpt>
      <trkpt lat="43.54675" lon="1.4737">
        <ele>262.066</ele>
        <time>2020-04-05T16:17:07Z</time>
      </trkpt>
      <trkpt lat="43.54677" lon="1.47371">
        <ele>261.831</ele>
        <time>2020-04-05T16:17:12Z</time>
      </trkpt>
      <trkpt lat="43.54679" lon="1.47375">
        <ele>261.539</ele>
        <time>2020-04-05T16:17:18Z</time>
      </trkpt>
      <trkpt lat="43.54682" lon="1.47384">
        <ele>261.214</ele>
        <time>2020-04-05T16:17:24Z</time>
      </trkpt>
      <trkpt lat="43.54687" lon="1.47394">
        <ele>260.853</ele>
        <time>2020-04-05T16:17:30Z</time>
      </trkpt>
      <trkpt lat="43.54694" lon="1.47398">
        <ele>260.468</ele>
        <time>2020-04-05T16:17:36Z</time>
      </trkpt>
      <trkpt lat="43.54703" lon="1.47405">
        <ele>260.084</ele>
        <time>2020-04-05T16:17:42Z</time>
      </trkpt>
      <trkpt lat="43.54709" lon="1.47411">
        <ele>259.771</ele>
        <time>2020-04-05T16:17:47Z</time>
      </trkpt>
      <trkpt lat="43.54716" lon="1.47416">
        <ele>259.409</ele>
        <time>2020-04-05T16:17:53Z</time>
      </trkpt>
      <trkpt lat="43.54719" lon="1.47415">
        <ele>259.036</ele>
        <time>2020-04-05T16:17:59Z</time>
      </trkpt>
      <trkpt lat="43.54722" lon="1.47416">
        <ele>258.705</ele>
        <time>2020-04-05T16:18:04Z</time>
      </trkpt>
      <trkpt lat="43.54727" lon="1.47419">
        <ele>258.306</ele>
        <time>2020-04-05T16:18:10Z</time>
      </trkpt>
      <trkpt lat="43.54736" lon="1.47425">
        <ele>257.908</ele>
        <time>2020-04-05T16:18:16Z</time>
      </trkpt>
      <trkpt lat="43.54742" lon="1.47429">
        <ele>257.513</ele>
        <time>2020-04-05T16:18:22Z</time>
      </trkpt>
      <trkpt lat="43.54746" lon="1.4743">
        <ele>257.187</ele>
        <time>2020-04-05T16:18:27Z</time>
      </trkpt>
      <trkpt lat="43.54751" lon="1.47433">
        <ele>256.805</ele>
        <time>2020-04-05T16:18:33Z</time>
      </trkpt>
      <trkpt lat="43.54754" lon="1.47436">
        <ele>256.489</ele>
        <time>2020-04-05T16:18:38Z</time>
      </trkpt>
      <trkpt lat="43.54759" lon="1.47441">
        <ele>256.174</ele>
        <time>2020-04-05T16:18:43Z</time>
      </trkpt>
      <trkpt lat="43.54764" lon="1.47447">
        <ele>255.797</ele>
        <time>2020-04-05T16:18:49Z</time>
      </trkpt>
      <trkpt lat="43.54768" lon="1.47451">
        <ele>255.489</ele>
        <time>2020-04-05T16:18:54Z</time>
      </trkpt>
      <trkpt lat="43.54773" lon="1.47456">
        <ele>255.186</ele>
        <time>2020-04-05T16:19:00Z</time>
      </trkpt>
      <trkpt lat="43.54777" lon="1.47459">
        <ele>254.851</ele>
        <time>2020-04-05T16:19:06Z</time>
      </trkpt>
      <trkpt lat="43.5478" lon="1.47464">
        <ele>254.579</ele>
        <time>2020-04-05T16:19:11Z</time>
      </trkpt>
      <trkpt lat="43.54785" lon="1.47471">
        <ele>254.288</ele>
        <time>2020-04-05T16:19:17Z</time>
      </trkpt>
      <trkpt lat="43.54791" lon="1.47478">
        <ele>253.942</ele>
        <time>2020-04-05T16:19:23Z</time>
      </trkpt>
      <trkpt lat="43.54794" lon="1.47484">
        <ele>253.657</ele>
        <time>2020-04-05T16:19:29Z</time>
      </trkpt>
      <trkpt lat="43.54798" lon="1.47488">
        <ele>253.325</ele>
        <time>2020-04-05T16:19:35Z</time>
      </trkpt>
      <trkpt lat="43.54803" lon="1.47492">
        <ele>252.994</ele>
        <time>2020-04-05T16:19:41Z</time>
      </trkpt>
      <trkpt lat="43.54811" lon="1.47501">
        <ele>252.657</ele>
        <time>2020-04-05T16:19:47Z</time>
      </trkpt>
      <trkpt lat="43.54817" lon="1.47507">
        <ele>252.323</ele>
        <time>2020-04-05T16:19:53Z</time>
      </trkpt>
      <trkpt lat="43.54821" lon="1.47512">
        <ele>252.06</ele>
        <time>2020-04-05T16:19:58Z</time>
      </trkpt>
      <trkpt lat="43.54825" lon="1.47514">
        <ele>251.812</ele>
        <time>2020-04-05T16:20:03Z</time>
      </trkpt>
      <trkpt lat="43.54829" lon="1.47519">
        <ele>251.505</ele>
        <time>2020-04-05T16:20:09Z</time>
      </trkpt>
      <trkpt lat="43.54835" lon="1.47528">
        <ele>251.185</ele>
        <time>2020-04-05T16:20:15Z</time>
      </trkpt>
      <trkpt lat="43.54838" lon="1.47536">
        <ele>250.916</ele>
        <time>2020-04-05T16:20:20Z</time>
      </trkpt>
      <trkpt lat="43.54842" lon="1.47541">
        <ele>250.648</ele>
        <time>2020-04-05T16:20:25Z</time>
      </trkpt>
      <trkpt lat="43.54847" lon="1.47549">
        <ele>250.331</ele>
        <time>2020-04-05T16:20:31Z</time>
      </trkpt>
      <trkpt lat="43.54851" lon="1.47559">
        <ele>250.021</ele>
        <time>2020-04-05T16:20:37Z</time>
      </trkpt>
      <trkpt lat="43.54854" lon="1.47565">
        <ele>249.764</ele>
        <time>2020-04-05T16:20:42Z</time>
      </trkpt>
      <trkpt lat="43.54858" lon="1.4757">
        <ele>249.46</ele>
        <time>2020-04-05T16:20:48Z</time>
      </trkpt>
      <trkpt lat="43.54861" lon="1.47576">
        <ele>249.208</ele>
        <time>2020-04-05T16:20:53Z</time>
      </trkpt>
      <trkpt lat="43.54865" lon="1.47583">
        <ele>248.911</ele>
        <time>2020-04-05T16:20:59Z</time>
      </trkpt>
      <trkpt lat="43.54869" lon="1.47589">
        <ele>248.67</ele>
        <time>2020-04-05T16:21:04Z</time>
      </trkpt>
      <trkpt lat="43.54873" lon="1.47595">
        <ele>248.387</ele>
        <time>2020-04-05T16:21:10Z</time>
      </trkpt>
      <trkpt lat="43.54876" lon="1.476">
        <ele>248.15</ele>
        <time>2020-04-05T16:21:15Z</time>
      </trkpt>
      <trkpt lat="43.54882" lon="1.47609">
        <ele>247.841</ele>
        <time>2020-04-05T16:21:21Z</time>
      </trkpt>
      <trkpt lat="43.54884" lon="1.47615">
        <ele>247.571</ele>
        <time>2020-04-05T16:21:26Z</time>
      </trkpt>
      <trkpt lat="43.54887" lon="1.47624">
        <ele>247.235</ele>
        <time>2020-04-05T16:21:32Z</time>
      </trkpt>
      <trkpt lat="43.54888" lon="1.47626">
        <ele>246.942</ele>
        <time>2020-04-05T16:21:37Z</time>
      </trkpt>
      <trkpt lat="43.54893" lon="1.4763">
        <ele>246.569</ele>
        <time>2020-04-05T16:21:43Z</time>
      </trkpt>
      <trkpt lat="43.54896" lon="1.47641">
        <ele>246.181</ele>
        <time>2020-04-05T16:21:49Z</time>
      </trkpt>
      <trkpt lat="43.54899" lon="1.4765">
        <ele>245.777</ele>
        <time>2020-04-05T16:21:55Z</time>
      </trkpt>
      <trkpt lat="43.54902" lon="1.47654">
        <ele>245.367</ele>
        <time>2020-04-05T16:22:01Z</time>
      </trkpt>
      <trkpt lat="43.54905" lon="1.47664">
        <ele>244.949</ele>
        <time>2020-04-05T16:22:07Z</time>
      </trkpt>
      <trkpt lat="43.54907" lon="1.47674">
        <ele>244.529</ele>
        <time>2020-04-05T16:22:13Z</time>
      </trkpt>
      <trkpt lat="43.54909" lon="1.47684">
        <ele>244.121</ele>
        <time>2020-04-05T16:22:19Z</time>
      </trkpt>
      <trkpt lat="43.54912" lon="1.47689">
        <ele>243.8</ele>
        <time>2020-04-05T16:22:24Z</time>
      </trkpt>
      <trkpt lat="43.54913" lon="1.47697">
        <ele>243.435</ele>
        <time>2020-04-05T16:22:30Z</time>
      </trkpt>
      <trkpt lat="43.54915" lon="1.47705">
        <ele>243.142</ele>
        <time>2020-04-05T16:22:35Z</time>
      </trkpt>
      <trkpt lat="43.54917" lon="1.47711">
        <ele>242.807</ele>
        <time>2020-04-05T16:22:41Z</time>
      </trkpt>
      <trkpt lat="43.54917" lon="1.47718">
        <ele>242.482</ele>
        <time>2020-04-05T16:22:47Z</time>
      </trkpt>
      <trkpt lat="43.5492" lon="1.47728">
        <ele>242.161</ele>
        <time>2020-04-05T16:22:53Z</time>
      </trkpt>
      <trkpt lat="43.54927" lon="1.47726">
        <ele>241.85</ele>
        <time>2020-04-05T16:22:59Z</time>
      </trkpt>
      <trkpt lat="43.54934" lon="1.47721">
        <ele>241.558</ele>
        <time>2020-04-05T16:23:05Z</time>
      </trkpt>
      <trkpt lat="43.5494" lon="1.47718">
        <ele>241.279</ele>
        <time>2020-04-05T16:23:11Z</time>
      </trkpt>
      <trkpt lat="43.54948" lon="1.47711">
        <ele>241.004</ele>
        <time>2020-04-05T16:23:17Z</time>
      </trkpt>
      <trkpt lat="43.54954" lon="1.47707">
        <ele>240.74</ele>
        <time>2020-04-05T16:23:23Z</time>
      </trkpt>
      <trkpt lat="43.54961" lon="1.47701">
        <ele>240.485</ele>
        <time>2020-04-05T16:23:29Z</time>
      </trkpt>
      <trkpt lat="43.54968" lon="1.47699">
        <ele>240.236</ele>
        <time>2020-04-05T16:23:35Z</time>
      </trkpt>
      <trkpt lat="43.54973" lon="1.47697">
        <ele>239.997</ele>
        <time>2020-04-05T16:23:41Z</time>
      </trkpt>
      <trkpt lat="43.54979" lon="1.47693">
        <ele>239.757</ele>
        <time>2020-04-05T16:23:47Z</time>
      </trkpt>
      <trkpt lat="43.54983" lon="1.47689">
        <ele>239.596</ele>
        <time>2020-04-05T16:23:52Z</time>
      </trkpt>
      <trkpt lat="43.54987" lon="1.47689">
        <ele>239.428</ele>
        <time>2020-04-05T16:23:58Z</time>
      </trkpt>
      <trkpt lat="43.54991" lon="1.47682">
        <ele>239.176</ele>
        <time>2020-04-05T16:24:04Z</time>
      </trkpt>
      <trkpt lat="43.54995" lon="1.47681">
        <ele>238.945</ele>
        <time>2020-04-05T16:24:09Z</time>
      </trkpt>
      <trkpt lat="43.55002" lon="1.4768">
        <ele>238.711</ele>
        <time>2020-04-05T16:24:14Z</time>
      </trkpt>
      <trkpt lat="43.55012" lon="1.4767">
        <ele>238.413</ele>
        <time>2020-04-05T16:24:20Z</time>
      </trkpt>
      <trkpt lat="43.55015" lon="1.47674">
        <ele>238.138</ele>
        <time>2020-04-05T16:24:25Z</time>
      </trkpt>
      <trkpt lat="43.55021" lon="1.47676">
        <ele>237.861</ele>
        <time>2020-04-05T16:24:30Z</time>
      </trkpt>
      <trkpt lat="43.55025" lon="1.47673">
        <ele>237.516</ele>
        <time>2020-04-05T16:24:36Z</time>
      </trkpt>
      <trkpt lat="43.55028" lon="1.47669">
        <ele>237.17</ele>
        <time>2020-04-05T16:24:42Z</time>
      </trkpt>
      <trkpt lat="43.5503" lon="1.47668">
        <ele>236.982</ele>
        <time>2020-04-05T16:24:47Z</time>
      </trkpt>
      <trkpt lat="43.55035" lon="1.47666">
        <ele>236.786</ele>
        <time>2020-04-05T16:24:52Z</time>
      </trkpt>
      <trkpt lat="43.55036" lon="1.47669">
        <ele>236.538</ele>
        <time>2020-04-05T16:24:58Z</time>
      </trkpt>
      <trkpt lat="43.55035" lon="1.47668">
        <ele>235.9</ele>
        <time>2020-04-05T16:25:03Z</time>
      </trkpt>
      <trkpt lat="43.55035" lon="1.47668">
        <ele>234.194</ele>
        <time>2020-04-05T16:25:10Z</time>
      </trkpt>
      <trkpt lat="43.55034" lon="1.47669">
        <ele>233.757</ele>
        <time>2020-04-05T16:25:16Z</time>
      </trkpt>
      <trkpt lat="43.55038" lon="1.47662">
        <ele>233.614</ele>
        <time>2020-04-05T16:25:30Z</time>
      </trkpt>
      <trkpt lat="43.55038" lon="1.47664">
        <ele>233.605</ele>
        <time>2020-04-05T16:25:36Z</time>
      </trkpt>
    </trkseg>
  </trk>
</gpx>